<?xml version="1.0" encoding="UTF-8" standalone="no" ?>
<gpx xmlns="http://www.topografix.com/GPX/1/1" xmlns:xsi="http://www.w3.org/2001/XMLSchema-instance" xsi:schemaLocation="http://www.topografix.com/GPX/1/1 http://www.topografix.com/GPX/1/1/gpx.xsd" version="1.1" creator="VisuGPX - https://www.visugpx.com">
  <metadata>
    <name>Mazieres_EtangNouesLacRibou_22km</name>
    <desc><![CDATA[gnerando idor:8206985_13135204]]></desc>
  </metadata>
  <trk>
    <name><![CDATA[Mazieres_lacRibou_22km-8206985]]></name>
    <extensions>
      <line xmlns="http://www.topografix.com/GPX/gpx_style/0/2">
        <color>0000FF</color>
        <width>4</width>
      </line>
    </extensions>
    <trkseg>
      <trkpt lat="47.03773" lon="-0.83564">
        <ele>88</ele>
        <time>2023-11-05T13:02:22Z</time>
      </trkpt>
      <trkpt lat="47.03822" lon="-0.83564">
        <ele>91</ele>
        <time>2023-11-05T13:03:27Z</time>
      </trkpt>
      <trkpt lat="47.03814" lon="-0.83453">
        <ele>89</ele>
        <time>2023-11-05T13:05:09Z</time>
      </trkpt>
      <trkpt lat="47.03846" lon="-0.83411">
        <ele>90</ele>
        <time>2023-11-05T13:06:06Z</time>
      </trkpt>
      <trkpt lat="47.03873" lon="-0.83425">
        <ele>93</ele>
        <time>2023-11-05T13:06:44Z</time>
      </trkpt>
      <trkpt lat="47.04078" lon="-0.83277">
        <ele>105</ele>
        <time>2023-11-05T13:11:49Z</time>
      </trkpt>
      <trkpt lat="47.0411" lon="-0.83169">
        <ele>104</ele>
        <time>2023-11-05T13:13:36Z</time>
      </trkpt>
      <trkpt lat="47.04073" lon="-0.82819">
        <ele>106</ele>
        <time>2023-11-05T13:18:58Z</time>
      </trkpt>
      <trkpt lat="47.04125" lon="-0.82765">
        <ele>108</ele>
        <time>2023-11-05T13:20:23Z</time>
      </trkpt>
      <trkpt lat="47.04147" lon="-0.82645">
        <ele>110</ele>
        <time>2023-11-05T13:22:17Z</time>
      </trkpt>
      <trkpt lat="47.04292" lon="-0.82378">
        <ele>103</ele>
        <time>2023-11-05T13:27:27Z</time>
      </trkpt>
      <trkpt lat="47.04304" lon="-0.8231">
        <ele>101</ele>
        <time>2023-11-05T13:28:31Z</time>
      </trkpt>
      <trkpt lat="47.04437" lon="-0.82165">
        <ele>104</ele>
        <time>2023-11-05T13:32:12Z</time>
      </trkpt>
      <trkpt lat="47.04582" lon="-0.82097">
        <ele>116</ele>
        <time>2023-11-05T13:35:35Z</time>
      </trkpt>
      <trkpt lat="47.04668" lon="-0.82303">
        <ele>119</ele>
        <time>2023-11-05T13:39:15Z</time>
      </trkpt>
      <trkpt lat="47.05098" lon="-0.82025">
        <ele>141</ele>
        <time>2023-11-05T13:49:42Z</time>
      </trkpt>
      <trkpt lat="47.05202" lon="-0.81999">
        <ele>144</ele>
        <time>2023-11-05T13:52:03Z</time>
      </trkpt>
      <trkpt lat="47.05253" lon="-0.82104">
        <ele>146</ele>
        <time>2023-11-05T13:54:00Z</time>
      </trkpt>
      <trkpt lat="47.05391" lon="-0.82133">
        <ele>152</ele>
        <time>2023-11-05T13:57:06Z</time>
      </trkpt>
      <trkpt lat="47.05543" lon="-0.82072">
        <ele>156</ele>
        <time>2023-11-05T14:00:36Z</time>
      </trkpt>
      <trkpt lat="47.0563" lon="-0.82092">
        <ele>156</ele>
        <time>2023-11-05T14:02:34Z</time>
      </trkpt>
      <trkpt lat="47.05767" lon="-0.81981">
        <ele>154</ele>
        <time>2023-11-05T14:06:02Z</time>
      </trkpt>
      <trkpt lat="47.05944" lon="-0.81978">
        <ele>152</ele>
        <time>2023-11-05T14:09:59Z</time>
      </trkpt>
      <trkpt lat="47.0632" lon="-0.81242">
        <ele>138</ele>
        <time>2023-11-05T14:23:55Z</time>
      </trkpt>
      <trkpt lat="47.06738" lon="-0.81224">
        <ele>132</ele>
        <time>2023-11-05T14:33:13Z</time>
      </trkpt>
      <trkpt lat="47.06915" lon="-0.80866">
        <ele>133</ele>
        <time>2023-11-05T14:39:55Z</time>
      </trkpt>
      <trkpt lat="47.07075" lon="-0.80661">
        <ele>137</ele>
        <time>2023-11-05T14:44:39Z</time>
      </trkpt>
      <trkpt lat="47.07439" lon="-0.80657">
        <ele>136</ele>
        <time>2023-11-05T14:52:44Z</time>
      </trkpt>
      <trkpt lat="47.07424" lon="-0.80971">
        <ele>129</ele>
        <time>2023-11-05T14:57:30Z</time>
      </trkpt>
      <trkpt lat="47.07451" lon="-0.81501">
        <ele>128</ele>
        <time>2023-11-05T15:05:33Z</time>
      </trkpt>
      <trkpt lat="47.07092" lon="-0.81433">
        <ele>126</ele>
        <time>2023-11-05T15:13:36Z</time>
      </trkpt>
      <trkpt lat="47.06893" lon="-0.81574">
        <ele>129</ele>
        <time>2023-11-05T15:18:31Z</time>
      </trkpt>
      <trkpt lat="47.06677" lon="-0.81397">
        <ele>132</ele>
        <time>2023-11-05T15:24:01Z</time>
      </trkpt>
      <trkpt lat="47.06736" lon="-0.81191">
        <ele>133</ele>
        <time>2023-11-05T15:27:25Z</time>
      </trkpt>
      <trkpt lat="47.06729" lon="-0.81205">
        <ele>133</ele>
        <time>2023-11-05T15:27:40Z</time>
      </trkpt>
      <trkpt lat="47.06332" lon="-0.81229">
        <ele>138</ele>
        <time>2023-11-05T15:36:31Z</time>
      </trkpt>
      <trkpt lat="47.06188" lon="-0.81562">
        <ele>142</ele>
        <time>2023-11-05T15:42:29Z</time>
      </trkpt>
      <trkpt lat="47.05924" lon="-0.82">
        <ele>153</ele>
        <time>2023-11-05T15:51:21Z</time>
      </trkpt>
      <trkpt lat="47.05765" lon="-0.82697">
        <ele>153</ele>
        <time>2023-11-05T16:02:29Z</time>
      </trkpt>
      <trkpt lat="47.05286" lon="-0.82946">
        <ele>143</ele>
        <time>2023-11-05T16:13:47Z</time>
      </trkpt>
      <trkpt lat="47.05298" lon="-0.83141">
        <ele>139</ele>
        <time>2023-11-05T16:16:45Z</time>
      </trkpt>
      <trkpt lat="47.05086" lon="-0.83402">
        <ele>136</ele>
        <time>2023-11-05T16:22:54Z</time>
      </trkpt>
      <trkpt lat="47.04862" lon="-0.83557">
        <ele>130</ele>
        <time>2023-11-05T16:28:25Z</time>
      </trkpt>
      <trkpt lat="47.04873" lon="-0.83666">
        <ele>132</ele>
        <time>2023-11-05T16:30:05Z</time>
      </trkpt>
      <trkpt lat="47.044" lon="-0.83977">
        <ele>124</ele>
        <time>2023-11-05T16:41:37Z</time>
      </trkpt>
      <trkpt lat="47.04245" lon="-0.83746">
        <ele>115</ele>
        <time>2023-11-05T16:46:31Z</time>
      </trkpt>
      <trkpt lat="47.04188" lon="-0.83889">
        <ele>115</ele>
        <time>2023-11-05T16:49:02Z</time>
      </trkpt>
      <trkpt lat="47.0412" lon="-0.83964">
        <ele>115</ele>
        <time>2023-11-05T16:50:56Z</time>
      </trkpt>
      <trkpt lat="47.0398" lon="-0.83794">
        <ele>108</ele>
        <time>2023-11-05T16:54:58Z</time>
      </trkpt>
      <trkpt lat="47.03923" lon="-0.83626">
        <ele>100</ele>
        <time>2023-11-05T16:57:49Z</time>
      </trkpt>
      <trkpt lat="47.03783" lon="-0.8357">
        <ele>89</ele>
        <time>2023-11-05T17:01:02Z</time>
      </trkpt>
      <trkpt lat="47.03766" lon="-0.83579">
        <ele>88</ele>
        <time>2023-11-05T17:01:27Z</time>
      </trkpt>
      <trkpt lat="47.03744" lon="-0.83652">
        <ele>88</ele>
        <time>2023-11-05T17:02:39Z</time>
      </trkpt>
      <trkpt lat="47.03742" lon="-0.83742">
        <ele>89</ele>
        <time>2023-11-05T17:04:01Z</time>
      </trkpt>
      <trkpt lat="47.03724" lon="-0.83831">
        <ele>93</ele>
        <time>2023-11-05T17:05:26Z</time>
      </trkpt>
      <trkpt lat="47.03641" lon="-0.83917">
        <ele>96</ele>
        <time>2023-11-05T17:07:41Z</time>
      </trkpt>
      <trkpt lat="47.03541" lon="-0.83947">
        <ele>96</ele>
        <time>2023-11-05T17:09:57Z</time>
      </trkpt>
      <trkpt lat="47.03448" lon="-0.83937">
        <ele>90</ele>
        <time>2023-11-05T17:12:02Z</time>
      </trkpt>
      <trkpt lat="47.03372" lon="-0.84111">
        <ele>92</ele>
        <time>2023-11-05T17:15:10Z</time>
      </trkpt>
      <trkpt lat="47.03178" lon="-0.84453">
        <ele>92</ele>
        <time>2023-11-05T17:21:54Z</time>
      </trkpt>
      <trkpt lat="47.03082" lon="-0.84544">
        <ele>90</ele>
        <time>2023-11-05T17:24:27Z</time>
      </trkpt>
      <trkpt lat="47.03106" lon="-0.84605">
        <ele>92</ele>
        <time>2023-11-05T17:25:31Z</time>
      </trkpt>
      <trkpt lat="47.0303" lon="-0.84645">
        <ele>88</ele>
        <time>2023-11-05T17:27:19Z</time>
      </trkpt>
      <trkpt lat="47.02969" lon="-0.8471">
        <ele>88</ele>
        <time>2023-11-05T17:28:59Z</time>
      </trkpt>
      <trkpt lat="47.02878" lon="-0.84692">
        <ele>87</ele>
        <time>2023-11-05T17:31:02Z</time>
      </trkpt>
      <trkpt lat="47.02659" lon="-0.84771">
        <ele>90</ele>
        <time>2023-11-05T17:36:03Z</time>
      </trkpt>
      <trkpt lat="47.02477" lon="-0.84775">
        <ele>84</ele>
        <time>2023-11-05T17:40:06Z</time>
      </trkpt>
      <trkpt lat="47.02415" lon="-0.8484">
        <ele>81</ele>
        <time>2023-11-05T17:41:47Z</time>
      </trkpt>
      <trkpt lat="47.0242" lon="-0.85002">
        <ele>81</ele>
        <time>2023-11-05T17:44:15Z</time>
      </trkpt>
      <trkpt lat="47.02585" lon="-0.85345">
        <ele>78</ele>
        <time>2023-11-05T17:50:37Z</time>
      </trkpt>
      <trkpt lat="47.0272" lon="-0.85323">
        <ele>86</ele>
        <time>2023-11-05T17:53:38Z</time>
      </trkpt>
      <trkpt lat="47.02787" lon="-0.85218">
        <ele>92</ele>
        <time>2023-11-05T17:55:49Z</time>
      </trkpt>
      <trkpt lat="47.02897" lon="-0.85208">
        <ele>92</ele>
        <time>2023-11-05T17:58:16Z</time>
      </trkpt>
      <trkpt lat="47.03185" lon="-0.85197">
        <ele>98</ele>
        <time>2023-11-05T18:04:40Z</time>
      </trkpt>
      <trkpt lat="47.03286" lon="-0.85247">
        <ele>98</ele>
        <time>2023-11-05T18:07:03Z</time>
      </trkpt>
      <trkpt lat="47.03239" lon="-0.85475">
        <ele>89</ele>
        <time>2023-11-05T18:10:39Z</time>
      </trkpt>
      <trkpt lat="47.03237" lon="-0.85587">
        <ele>79</ele>
        <time>2023-11-05T18:12:21Z</time>
      </trkpt>
      <trkpt lat="47.03342" lon="-0.85652">
        <ele>78</ele>
        <time>2023-11-05T18:14:53Z</time>
      </trkpt>
      <trkpt lat="47.03357" lon="-0.85742">
        <ele>76</ele>
        <time>2023-11-05T18:16:18Z</time>
      </trkpt>
      <trkpt lat="47.03411" lon="-0.8581">
        <ele>75</ele>
        <time>2023-11-05T18:17:53Z</time>
      </trkpt>
      <trkpt lat="47.03492" lon="-0.86027">
        <ele>76</ele>
        <time>2023-11-05T18:21:38Z</time>
      </trkpt>
      <trkpt lat="47.03677" lon="-0.86056">
        <ele>76</ele>
        <time>2023-11-05T18:25:46Z</time>
      </trkpt>
      <trkpt lat="47.03753" lon="-0.86182">
        <ele>77</ele>
        <time>2023-11-05T18:28:19Z</time>
      </trkpt>
      <trkpt lat="47.03888" lon="-0.8615">
        <ele>76</ele>
        <time>2023-11-05T18:31:21Z</time>
      </trkpt>
      <trkpt lat="47.03923" lon="-0.86254">
        <ele>76</ele>
        <time>2023-11-05T18:33:07Z</time>
      </trkpt>
      <trkpt lat="47.03989" lon="-0.86301">
        <ele>77</ele>
        <time>2023-11-05T18:34:45Z</time>
      </trkpt>
      <trkpt lat="47.0409" lon="-0.86233">
        <ele>74</ele>
        <time>2023-11-05T18:37:13Z</time>
      </trkpt>
      <trkpt lat="47.04176" lon="-0.86337">
        <ele>74</ele>
        <time>2023-11-05T18:39:42Z</time>
      </trkpt>
      <trkpt lat="47.04297" lon="-0.86417">
        <ele>77</ele>
        <time>2023-11-05T18:42:39Z</time>
      </trkpt>
      <trkpt lat="47.04415" lon="-0.86427">
        <ele>76</ele>
        <time>2023-11-05T18:45:17Z</time>
      </trkpt>
      <trkpt lat="47.04506" lon="-0.86546">
        <ele>78</ele>
        <time>2023-11-05T18:47:59Z</time>
      </trkpt>
      <trkpt lat="47.04548" lon="-0.86958">
        <ele>79</ele>
        <time>2023-11-05T18:54:18Z</time>
      </trkpt>
      <trkpt lat="47.04639" lon="-0.87012">
        <ele>73</ele>
        <time>2023-11-05T18:56:29Z</time>
      </trkpt>
      <trkpt lat="47.04602" lon="-0.86835">
        <ele>76</ele>
        <time>2023-11-05T18:59:17Z</time>
      </trkpt>
      <trkpt lat="47.04575" lon="-0.86749">
        <ele>78</ele>
        <time>2023-11-05T19:00:44Z</time>
      </trkpt>
      <trkpt lat="47.04609" lon="-0.86737">
        <ele>76</ele>
        <time>2023-11-05T19:01:30Z</time>
      </trkpt>
      <trkpt lat="47.0464" lon="-0.86763">
        <ele>75</ele>
        <time>2023-11-05T19:02:18Z</time>
      </trkpt>
      <trkpt lat="47.04666" lon="-0.86736">
        <ele>74</ele>
        <time>2023-11-05T19:03:00Z</time>
      </trkpt>
      <trkpt lat="47.04666" lon="-0.86664">
        <ele>74</ele>
        <time>2023-11-05T19:04:06Z</time>
      </trkpt>
      <trkpt lat="47.04702" lon="-0.86634">
        <ele>74</ele>
        <time>2023-11-05T19:05:01Z</time>
      </trkpt>
      <trkpt lat="47.04723" lon="-0.86577">
        <ele>75</ele>
        <time>2023-11-05T19:06:00Z</time>
      </trkpt>
      <trkpt lat="47.04865" lon="-0.86461">
        <ele>79</ele>
        <time>2023-11-05T19:09:37Z</time>
      </trkpt>
      <trkpt lat="47.04729" lon="-0.86147">
        <ele>84</ele>
        <time>2023-11-05T19:15:15Z</time>
      </trkpt>
      <trkpt lat="47.0477" lon="-0.86054">
        <ele>87</ele>
        <time>2023-11-05T19:16:56Z</time>
      </trkpt>
      <trkpt lat="47.04748" lon="-0.85793">
        <ele>94</ele>
        <time>2023-11-05T19:20:55Z</time>
      </trkpt>
      <trkpt lat="47.04673" lon="-0.85525">
        <ele>103</ele>
        <time>2023-11-05T19:25:18Z</time>
      </trkpt>
      <trkpt lat="47.04526" lon="-0.85582">
        <ele>100</ele>
        <time>2023-11-05T19:28:41Z</time>
      </trkpt>
      <trkpt lat="47.04393" lon="-0.85568">
        <ele>99</ele>
        <time>2023-11-05T19:31:39Z</time>
      </trkpt>
      <trkpt lat="47.04366" lon="-0.8535">
        <ele>103</ele>
        <time>2023-11-05T19:35:01Z</time>
      </trkpt>
      <trkpt lat="47.04375" lon="-0.85046">
        <ele>111</ele>
        <time>2023-11-05T19:39:38Z</time>
      </trkpt>
      <trkpt lat="47.04266" lon="-0.85007">
        <ele>112</ele>
        <time>2023-11-05T19:42:07Z</time>
      </trkpt>
      <trkpt lat="47.04215" lon="-0.84925">
        <ele>114</ele>
        <time>2023-11-05T19:43:48Z</time>
      </trkpt>
      <trkpt lat="47.04059" lon="-0.84978">
        <ele>109</ele>
        <time>2023-11-05T19:47:22Z</time>
      </trkpt>
      <trkpt lat="47.03954" lon="-0.8491">
        <ele>108</ele>
        <time>2023-11-05T19:49:55Z</time>
      </trkpt>
      <trkpt lat="47.0384" lon="-0.84739">
        <ele>110</ele>
        <time>2023-11-05T19:53:33Z</time>
      </trkpt>
      <trkpt lat="47.03884" lon="-0.84657">
        <ele>111</ele>
        <time>2023-11-05T19:55:07Z</time>
      </trkpt>
      <trkpt lat="47.03813" lon="-0.84532">
        <ele>112</ele>
        <time>2023-11-05T19:57:35Z</time>
      </trkpt>
      <trkpt lat="47.03764" lon="-0.84528">
        <ele>110</ele>
        <time>2023-11-05T19:58:41Z</time>
      </trkpt>
      <trkpt lat="47.03857" lon="-0.84553">
        <ele>112</ele>
        <time>2023-11-05T20:00:47Z</time>
      </trkpt>
      <trkpt lat="47.04205" lon="-0.84162">
        <ele>121</ele>
        <time>2023-11-05T20:10:32Z</time>
      </trkpt>
      <trkpt lat="47.04069" lon="-0.83934">
        <ele>114</ele>
        <time>2023-11-05T20:15:08Z</time>
      </trkpt>
      <trkpt lat="47.03919" lon="-0.83664">
        <ele>103</ele>
        <time>2023-11-05T20:20:24Z</time>
      </trkpt>
      <trkpt lat="47.03781" lon="-0.83527">
        <ele>88</ele>
        <time>2023-11-05T20:24:07Z</time>
      </trkpt>
    </trkseg>
  </trk>
  <trk>
    <name><![CDATA[Cholet_EtangNouesLacRibou_22.3km-13135204]]></name>
    <extensions>
      <line xmlns="http://www.topografix.com/GPX/gpx_style/0/2">
        <color>800080</color>
        <width>4</width>
      </line>
    </extensions>
    <trkseg>
      <trkpt lat="47.03823" lon="-0.83567">
        <ele>91</ele>
        <time>2023-11-05T13:02:07Z</time>
      </trkpt>
      <trkpt lat="47.03829" lon="-0.83538">
        <ele>91</ele>
        <time>2023-11-05T13:02:35Z</time>
      </trkpt>
      <trkpt lat="47.03816" lon="-0.83476">
        <ele>89</ele>
        <time>2023-11-05T13:03:34Z</time>
      </trkpt>
      <trkpt lat="47.03814" lon="-0.83443">
        <ele>88</ele>
        <time>2023-11-05T13:04:04Z</time>
      </trkpt>
      <trkpt lat="47.03827" lon="-0.83422">
        <ele>89</ele>
        <time>2023-11-05T13:04:29Z</time>
      </trkpt>
      <trkpt lat="47.03844" lon="-0.83408">
        <ele>90</ele>
        <time>2023-11-05T13:04:56Z</time>
      </trkpt>
      <trkpt lat="47.03861" lon="-0.83427">
        <ele>92</ele>
        <time>2023-11-05T13:05:24Z</time>
      </trkpt>
      <trkpt lat="47.0388" lon="-0.83418">
        <ele>93</ele>
        <time>2023-11-05T13:05:51Z</time>
      </trkpt>
      <trkpt lat="47.03898" lon="-0.83401">
        <ele>94</ele>
        <time>2023-11-05T13:06:19Z</time>
      </trkpt>
      <trkpt lat="47.03937" lon="-0.83381">
        <ele>97</ele>
        <time>2023-11-05T13:07:14Z</time>
      </trkpt>
      <trkpt lat="47.03973" lon="-0.83355">
        <ele>100</ele>
        <time>2023-11-05T13:08:08Z</time>
      </trkpt>
      <trkpt lat="47.04025" lon="-0.83308">
        <ele>102</ele>
        <time>2023-11-05T13:09:29Z</time>
      </trkpt>
      <trkpt lat="47.04077" lon="-0.83272">
        <ele>104</ele>
        <time>2023-11-05T13:10:46Z</time>
      </trkpt>
      <trkpt lat="47.04089" lon="-0.8325">
        <ele>105</ele>
        <time>2023-11-05T13:11:12Z</time>
      </trkpt>
      <trkpt lat="47.041" lon="-0.83223">
        <ele>105</ele>
        <time>2023-11-05T13:11:40Z</time>
      </trkpt>
      <trkpt lat="47.04111" lon="-0.83158">
        <ele>104</ele>
        <time>2023-11-05T13:12:41Z</time>
      </trkpt>
      <trkpt lat="47.0411" lon="-0.83128">
        <ele>103</ele>
        <time>2023-11-05T13:13:09Z</time>
      </trkpt>
      <trkpt lat="47.04106" lon="-0.83099">
        <ele>103</ele>
        <time>2023-11-05T13:13:35Z</time>
      </trkpt>
      <trkpt lat="47.04102" lon="-0.82983">
        <ele>104</ele>
        <time>2023-11-05T13:15:21Z</time>
      </trkpt>
      <trkpt lat="47.04092" lon="-0.82918">
        <ele>105</ele>
        <time>2023-11-05T13:16:22Z</time>
      </trkpt>
      <trkpt lat="47.0409" lon="-0.82889">
        <ele>105</ele>
        <time>2023-11-05T13:16:48Z</time>
      </trkpt>
      <trkpt lat="47.0408" lon="-0.82858">
        <ele>106</ele>
        <time>2023-11-05T13:17:19Z</time>
      </trkpt>
      <trkpt lat="47.04075" lon="-0.82827">
        <ele>106</ele>
        <time>2023-11-05T13:17:48Z</time>
      </trkpt>
      <trkpt lat="47.04091" lon="-0.82806">
        <ele>107</ele>
        <time>2023-11-05T13:18:17Z</time>
      </trkpt>
      <trkpt lat="47.04108" lon="-0.82791">
        <ele>108</ele>
        <time>2023-11-05T13:18:44Z</time>
      </trkpt>
      <trkpt lat="47.0412" lon="-0.82767">
        <ele>108</ele>
        <time>2023-11-05T13:19:11Z</time>
      </trkpt>
      <trkpt lat="47.04128" lon="-0.82738">
        <ele>109</ele>
        <time>2023-11-05T13:19:39Z</time>
      </trkpt>
      <trkpt lat="47.04134" lon="-0.82678">
        <ele>110</ele>
        <time>2023-11-05T13:20:34Z</time>
      </trkpt>
      <trkpt lat="47.04154" lon="-0.82621">
        <ele>110</ele>
        <time>2023-11-05T13:21:32Z</time>
      </trkpt>
      <trkpt lat="47.04187" lon="-0.82584">
        <ele>111</ele>
        <time>2023-11-05T13:22:28Z</time>
      </trkpt>
      <trkpt lat="47.04201" lon="-0.82563">
        <ele>110</ele>
        <time>2023-11-05T13:22:55Z</time>
      </trkpt>
      <trkpt lat="47.04211" lon="-0.82535">
        <ele>109</ele>
        <time>2023-11-05T13:23:23Z</time>
      </trkpt>
      <trkpt lat="47.04242" lon="-0.82486">
        <ele>109</ele>
        <time>2023-11-05T13:24:24Z</time>
      </trkpt>
      <trkpt lat="47.04253" lon="-0.82462">
        <ele>107</ele>
        <time>2023-11-05T13:24:50Z</time>
      </trkpt>
      <trkpt lat="47.04295" lon="-0.82389">
        <ele>104</ele>
        <time>2023-11-05T13:26:17Z</time>
      </trkpt>
      <trkpt lat="47.04307" lon="-0.82363">
        <ele>103</ele>
        <time>2023-11-05T13:26:46Z</time>
      </trkpt>
      <trkpt lat="47.04304" lon="-0.8233">
        <ele>102</ele>
        <time>2023-11-05T13:27:16Z</time>
      </trkpt>
      <trkpt lat="47.04314" lon="-0.82305">
        <ele>101</ele>
        <time>2023-11-05T13:27:43Z</time>
      </trkpt>
      <trkpt lat="47.04356" lon="-0.82248">
        <ele>102</ele>
        <time>2023-11-05T13:28:59Z</time>
      </trkpt>
      <trkpt lat="47.04426" lon="-0.82183">
        <ele>103</ele>
        <time>2023-11-05T13:30:49Z</time>
      </trkpt>
      <trkpt lat="47.04442" lon="-0.82159">
        <ele>104</ele>
        <time>2023-11-05T13:31:20Z</time>
      </trkpt>
      <trkpt lat="47.04459" lon="-0.82142">
        <ele>106</ele>
        <time>2023-11-05T13:31:47Z</time>
      </trkpt>
      <trkpt lat="47.04481" lon="-0.82133">
        <ele>107</ele>
        <time>2023-11-05T13:32:18Z</time>
      </trkpt>
      <trkpt lat="47.04501" lon="-0.82128">
        <ele>108</ele>
        <time>2023-11-05T13:32:45Z</time>
      </trkpt>
      <trkpt lat="47.04521" lon="-0.82117">
        <ele>111</ele>
        <time>2023-11-05T13:33:13Z</time>
      </trkpt>
      <trkpt lat="47.04539" lon="-0.82103">
        <ele>113</ele>
        <time>2023-11-05T13:33:41Z</time>
      </trkpt>
      <trkpt lat="47.04558" lon="-0.821">
        <ele>114</ele>
        <time>2023-11-05T13:34:06Z</time>
      </trkpt>
      <trkpt lat="47.04576" lon="-0.82109">
        <ele>115</ele>
        <time>2023-11-05T13:34:32Z</time>
      </trkpt>
      <trkpt lat="47.04603" lon="-0.82188">
        <ele>114</ele>
        <time>2023-11-05T13:35:52Z</time>
      </trkpt>
      <trkpt lat="47.04616" lon="-0.82217">
        <ele>115</ele>
        <time>2023-11-05T13:36:23Z</time>
      </trkpt>
      <trkpt lat="47.04643" lon="-0.82265">
        <ele>117</ele>
        <time>2023-11-05T13:37:20Z</time>
      </trkpt>
      <trkpt lat="47.04659" lon="-0.82288">
        <ele>118</ele>
        <time>2023-11-05T13:37:50Z</time>
      </trkpt>
      <trkpt lat="47.04679" lon="-0.82285">
        <ele>120</ele>
        <time>2023-11-05T13:38:17Z</time>
      </trkpt>
      <trkpt lat="47.04698" lon="-0.82271">
        <ele>121</ele>
        <time>2023-11-05T13:38:45Z</time>
      </trkpt>
      <trkpt lat="47.04798" lon="-0.82221">
        <ele>125</ele>
        <time>2023-11-05T13:41:06Z</time>
      </trkpt>
      <trkpt lat="47.04897" lon="-0.82158">
        <ele>130</ele>
        <time>2023-11-05T13:43:30Z</time>
      </trkpt>
      <trkpt lat="47.04918" lon="-0.82149">
        <ele>131</ele>
        <time>2023-11-05T13:43:59Z</time>
      </trkpt>
      <trkpt lat="47.04954" lon="-0.82125">
        <ele>133</ele>
        <time>2023-11-05T13:44:52Z</time>
      </trkpt>
      <trkpt lat="47.04992" lon="-0.82104">
        <ele>136</ele>
        <time>2023-11-05T13:45:46Z</time>
      </trkpt>
      <trkpt lat="47.05009" lon="-0.82093">
        <ele>137</ele>
        <time>2023-11-05T13:46:11Z</time>
      </trkpt>
      <trkpt lat="47.05026" lon="-0.82078">
        <ele>138</ele>
        <time>2023-11-05T13:46:38Z</time>
      </trkpt>
      <trkpt lat="47.05066" lon="-0.82055">
        <ele>139</ele>
        <time>2023-11-05T13:47:35Z</time>
      </trkpt>
      <trkpt lat="47.05083" lon="-0.82041">
        <ele>140</ele>
        <time>2023-11-05T13:48:01Z</time>
      </trkpt>
      <trkpt lat="47.05101" lon="-0.8203">
        <ele>141</ele>
        <time>2023-11-05T13:48:27Z</time>
      </trkpt>
      <trkpt lat="47.05123" lon="-0.82025">
        <ele>141</ele>
        <time>2023-11-05T13:48:57Z</time>
      </trkpt>
      <trkpt lat="47.05143" lon="-0.82031">
        <ele>142</ele>
        <time>2023-11-05T13:49:24Z</time>
      </trkpt>
      <trkpt lat="47.05164" lon="-0.82032">
        <ele>143</ele>
        <time>2023-11-05T13:49:52Z</time>
      </trkpt>
      <trkpt lat="47.05178" lon="-0.82014">
        <ele>143</ele>
        <time>2023-11-05T13:50:17Z</time>
      </trkpt>
      <trkpt lat="47.05199" lon="-0.82008">
        <ele>144</ele>
        <time>2023-11-05T13:50:45Z</time>
      </trkpt>
      <trkpt lat="47.05215" lon="-0.82023">
        <ele>145</ele>
        <time>2023-11-05T13:51:11Z</time>
      </trkpt>
      <trkpt lat="47.05227" lon="-0.82081">
        <ele>144</ele>
        <time>2023-11-05T13:52:06Z</time>
      </trkpt>
      <trkpt lat="47.05235" lon="-0.82105">
        <ele>145</ele>
        <time>2023-11-05T13:52:30Z</time>
      </trkpt>
      <trkpt lat="47.05256" lon="-0.82118">
        <ele>146</ele>
        <time>2023-11-05T13:53:00Z</time>
      </trkpt>
      <trkpt lat="47.05295" lon="-0.8213">
        <ele>148</ele>
        <time>2023-11-05T13:53:54Z</time>
      </trkpt>
      <trkpt lat="47.05356" lon="-0.82142">
        <ele>150</ele>
        <time>2023-11-05T13:55:16Z</time>
      </trkpt>
      <trkpt lat="47.05378" lon="-0.82142">
        <ele>151</ele>
        <time>2023-11-05T13:55:45Z</time>
      </trkpt>
      <trkpt lat="47.05418" lon="-0.82132">
        <ele>153</ele>
        <time>2023-11-05T13:56:39Z</time>
      </trkpt>
      <trkpt lat="47.05439" lon="-0.82124">
        <ele>154</ele>
        <time>2023-11-05T13:57:08Z</time>
      </trkpt>
      <trkpt lat="47.05475" lon="-0.82098">
        <ele>154</ele>
        <time>2023-11-05T13:58:02Z</time>
      </trkpt>
      <trkpt lat="47.05493" lon="-0.82081">
        <ele>155</ele>
        <time>2023-11-05T13:58:30Z</time>
      </trkpt>
      <trkpt lat="47.05512" lon="-0.82069">
        <ele>155</ele>
        <time>2023-11-05T13:58:58Z</time>
      </trkpt>
      <trkpt lat="47.05534" lon="-0.82069">
        <ele>156</ele>
        <time>2023-11-05T13:59:27Z</time>
      </trkpt>
      <trkpt lat="47.05551" lon="-0.82085">
        <ele>156</ele>
        <time>2023-11-05T13:59:54Z</time>
      </trkpt>
      <trkpt lat="47.0559" lon="-0.82085">
        <ele>157</ele>
        <time>2023-11-05T14:00:46Z</time>
      </trkpt>
      <trkpt lat="47.05613" lon="-0.82082">
        <ele>156</ele>
        <time>2023-11-05T14:01:17Z</time>
      </trkpt>
      <trkpt lat="47.05635" lon="-0.82073">
        <ele>156</ele>
        <time>2023-11-05T14:01:48Z</time>
      </trkpt>
      <trkpt lat="47.05782" lon="-0.81975">
        <ele>154</ele>
        <time>2023-11-05T14:05:23Z</time>
      </trkpt>
      <trkpt lat="47.05824" lon="-0.81976">
        <ele>153</ele>
        <time>2023-11-05T14:06:19Z</time>
      </trkpt>
      <trkpt lat="47.05845" lon="-0.81973">
        <ele>153</ele>
        <time>2023-11-05T14:06:47Z</time>
      </trkpt>
      <trkpt lat="47.05868" lon="-0.81973">
        <ele>153</ele>
        <time>2023-11-05T14:07:18Z</time>
      </trkpt>
      <trkpt lat="47.05909" lon="-0.81976">
        <ele>152</ele>
        <time>2023-11-05T14:08:13Z</time>
      </trkpt>
      <trkpt lat="47.05933" lon="-0.81972">
        <ele>152</ele>
        <time>2023-11-05T14:08:45Z</time>
      </trkpt>
      <trkpt lat="47.05954" lon="-0.8196">
        <ele>151</ele>
        <time>2023-11-05T14:09:15Z</time>
      </trkpt>
      <trkpt lat="47.06029" lon="-0.81856">
        <ele>148</ele>
        <time>2023-11-05T14:11:33Z</time>
      </trkpt>
      <trkpt lat="47.06046" lon="-0.8184">
        <ele>147</ele>
        <time>2023-11-05T14:12:00Z</time>
      </trkpt>
      <trkpt lat="47.0607" lon="-0.81797">
        <ele>146</ele>
        <time>2023-11-05T14:12:50Z</time>
      </trkpt>
      <trkpt lat="47.06086" lon="-0.81778">
        <ele>146</ele>
        <time>2023-11-05T14:13:18Z</time>
      </trkpt>
      <trkpt lat="47.06097" lon="-0.8175">
        <ele>145</ele>
        <time>2023-11-05T14:13:47Z</time>
      </trkpt>
      <trkpt lat="47.06111" lon="-0.81723">
        <ele>144</ele>
        <time>2023-11-05T14:14:18Z</time>
      </trkpt>
      <trkpt lat="47.06131" lon="-0.81665">
        <ele>143</ele>
        <time>2023-11-05T14:15:17Z</time>
      </trkpt>
      <trkpt lat="47.0616" lon="-0.81617">
        <ele>143</ele>
        <time>2023-11-05T14:16:15Z</time>
      </trkpt>
      <trkpt lat="47.06179" lon="-0.81566">
        <ele>142</ele>
        <time>2023-11-05T14:17:08Z</time>
      </trkpt>
      <trkpt lat="47.06214" lon="-0.81491">
        <ele>140</ele>
        <time>2023-11-05T14:18:31Z</time>
      </trkpt>
      <trkpt lat="47.06241" lon="-0.81449">
        <ele>139</ele>
        <time>2023-11-05T14:19:23Z</time>
      </trkpt>
      <trkpt lat="47.06257" lon="-0.81393">
        <ele>138</ele>
        <time>2023-11-05T14:20:18Z</time>
      </trkpt>
      <trkpt lat="47.06269" lon="-0.81366">
        <ele>138</ele>
        <time>2023-11-05T14:20:48Z</time>
      </trkpt>
      <trkpt lat="47.06304" lon="-0.81316">
        <ele>138</ele>
        <time>2023-11-05T14:21:53Z</time>
      </trkpt>
      <trkpt lat="47.06286" lon="-0.81326">
        <ele>138</ele>
        <time>2023-11-05T14:22:19Z</time>
      </trkpt>
      <trkpt lat="47.06299" lon="-0.81301">
        <ele>138</ele>
        <time>2023-11-05T14:22:47Z</time>
      </trkpt>
      <trkpt lat="47.06318" lon="-0.81248">
        <ele>138</ele>
        <time>2023-11-05T14:23:42Z</time>
      </trkpt>
      <trkpt lat="47.06332" lon="-0.81228">
        <ele>138</ele>
        <time>2023-11-05T14:24:08Z</time>
      </trkpt>
      <trkpt lat="47.06354" lon="-0.81217">
        <ele>137</ele>
        <time>2023-11-05T14:24:39Z</time>
      </trkpt>
      <trkpt lat="47.06442" lon="-0.81212">
        <ele>135</ele>
        <time>2023-11-05T14:26:36Z</time>
      </trkpt>
      <trkpt lat="47.06484" lon="-0.81214">
        <ele>135</ele>
        <time>2023-11-05T14:27:32Z</time>
      </trkpt>
      <trkpt lat="47.06547" lon="-0.81212">
        <ele>134</ele>
        <time>2023-11-05T14:28:56Z</time>
      </trkpt>
      <trkpt lat="47.06568" lon="-0.81214">
        <ele>133</ele>
        <time>2023-11-05T14:29:24Z</time>
      </trkpt>
      <trkpt lat="47.0659" lon="-0.81211">
        <ele>133</ele>
        <time>2023-11-05T14:29:54Z</time>
      </trkpt>
      <trkpt lat="47.06612" lon="-0.81212">
        <ele>133</ele>
        <time>2023-11-05T14:30:23Z</time>
      </trkpt>
      <trkpt lat="47.06675" lon="-0.81209">
        <ele>132</ele>
        <time>2023-11-05T14:31:47Z</time>
      </trkpt>
      <trkpt lat="47.0672" lon="-0.81211">
        <ele>132</ele>
        <time>2023-11-05T14:32:48Z</time>
      </trkpt>
      <trkpt lat="47.06738" lon="-0.81216">
        <ele>132</ele>
        <time>2023-11-05T14:33:12Z</time>
      </trkpt>
      <trkpt lat="47.06755" lon="-0.81195">
        <ele>133</ele>
        <time>2023-11-05T14:33:42Z</time>
      </trkpt>
      <trkpt lat="47.06776" lon="-0.81144">
        <ele>132</ele>
        <time>2023-11-05T14:34:36Z</time>
      </trkpt>
      <trkpt lat="47.06801" lon="-0.81067">
        <ele>134</ele>
        <time>2023-11-05T14:35:53Z</time>
      </trkpt>
      <trkpt lat="47.06818" lon="-0.81044">
        <ele>134</ele>
        <time>2023-11-05T14:36:24Z</time>
      </trkpt>
      <trkpt lat="47.06855" lon="-0.80977">
        <ele>135</ele>
        <time>2023-11-05T14:37:43Z</time>
      </trkpt>
      <trkpt lat="47.06864" lon="-0.8095">
        <ele>135</ele>
        <time>2023-11-05T14:38:10Z</time>
      </trkpt>
      <trkpt lat="47.06877" lon="-0.80932">
        <ele>134</ele>
        <time>2023-11-05T14:38:34Z</time>
      </trkpt>
      <trkpt lat="47.069" lon="-0.80887">
        <ele>133</ele>
        <time>2023-11-05T14:39:25Z</time>
      </trkpt>
      <trkpt lat="47.06909" lon="-0.80862">
        <ele>134</ele>
        <time>2023-11-05T14:39:51Z</time>
      </trkpt>
      <trkpt lat="47.06922" lon="-0.80837">
        <ele>135</ele>
        <time>2023-11-05T14:40:19Z</time>
      </trkpt>
      <trkpt lat="47.06973" lon="-0.80752">
        <ele>136</ele>
        <time>2023-11-05T14:42:02Z</time>
      </trkpt>
      <trkpt lat="47.0702" lon="-0.80705">
        <ele>136</ele>
        <time>2023-11-05T14:43:18Z</time>
      </trkpt>
      <trkpt lat="47.0704" lon="-0.8069">
        <ele>136</ele>
        <time>2023-11-05T14:43:48Z</time>
      </trkpt>
      <trkpt lat="47.07057" lon="-0.807">
        <ele>136</ele>
        <time>2023-11-05T14:44:12Z</time>
      </trkpt>
      <trkpt lat="47.07075" lon="-0.80686">
        <ele>136</ele>
        <time>2023-11-05T14:44:40Z</time>
      </trkpt>
      <trkpt lat="47.07092" lon="-0.80678">
        <ele>136</ele>
        <time>2023-11-05T14:45:03Z</time>
      </trkpt>
      <trkpt lat="47.07124" lon="-0.8064">
        <ele>136</ele>
        <time>2023-11-05T14:45:58Z</time>
      </trkpt>
      <trkpt lat="47.0717" lon="-0.80638">
        <ele>135</ele>
        <time>2023-11-05T14:47:00Z</time>
      </trkpt>
      <trkpt lat="47.07236" lon="-0.80624">
        <ele>132</ele>
        <time>2023-11-05T14:48:29Z</time>
      </trkpt>
      <trkpt lat="47.07256" lon="-0.80614">
        <ele>132</ele>
        <time>2023-11-05T14:48:57Z</time>
      </trkpt>
      <trkpt lat="47.07278" lon="-0.80612">
        <ele>133</ele>
        <time>2023-11-05T14:49:26Z</time>
      </trkpt>
      <trkpt lat="47.0732" lon="-0.80624">
        <ele>134</ele>
        <time>2023-11-05T14:50:23Z</time>
      </trkpt>
      <trkpt lat="47.07361" lon="-0.80642">
        <ele>135</ele>
        <time>2023-11-05T14:51:21Z</time>
      </trkpt>
      <trkpt lat="47.07385" lon="-0.8064">
        <ele>136</ele>
        <time>2023-11-05T14:51:53Z</time>
      </trkpt>
      <trkpt lat="47.07403" lon="-0.80646">
        <ele>136</ele>
        <time>2023-11-05T14:52:17Z</time>
      </trkpt>
      <trkpt lat="47.07435" lon="-0.80675">
        <ele>135</ele>
        <time>2023-11-05T14:53:07Z</time>
      </trkpt>
      <trkpt lat="47.07441" lon="-0.80703">
        <ele>135</ele>
        <time>2023-11-05T14:53:34Z</time>
      </trkpt>
      <trkpt lat="47.07432" lon="-0.80762">
        <ele>133</ele>
        <time>2023-11-05T14:54:29Z</time>
      </trkpt>
      <trkpt lat="47.07428" lon="-0.80823">
        <ele>132</ele>
        <time>2023-11-05T14:55:25Z</time>
      </trkpt>
      <trkpt lat="47.0743" lon="-0.80885">
        <ele>130</ele>
        <time>2023-11-05T14:56:21Z</time>
      </trkpt>
      <trkpt lat="47.07424" lon="-0.80944">
        <ele>129</ele>
        <time>2023-11-05T14:57:15Z</time>
      </trkpt>
      <trkpt lat="47.07418" lon="-0.80972">
        <ele>129</ele>
        <time>2023-11-05T14:57:42Z</time>
      </trkpt>
      <trkpt lat="47.07424" lon="-0.81028">
        <ele>129</ele>
        <time>2023-11-05T14:58:34Z</time>
      </trkpt>
      <trkpt lat="47.07423" lon="-0.81085">
        <ele>129</ele>
        <time>2023-11-05T14:59:25Z</time>
      </trkpt>
      <trkpt lat="47.07431" lon="-0.81177">
        <ele>129</ele>
        <time>2023-11-05T15:00:50Z</time>
      </trkpt>
      <trkpt lat="47.07436" lon="-0.81205">
        <ele>129</ele>
        <time>2023-11-05T15:01:16Z</time>
      </trkpt>
      <trkpt lat="47.07441" lon="-0.81294">
        <ele>129</ele>
        <time>2023-11-05T15:02:37Z</time>
      </trkpt>
      <trkpt lat="47.0744" lon="-0.81322">
        <ele>129</ele>
        <time>2023-11-05T15:03:03Z</time>
      </trkpt>
      <trkpt lat="47.07446" lon="-0.81417">
        <ele>129</ele>
        <time>2023-11-05T15:04:29Z</time>
      </trkpt>
      <trkpt lat="47.07447" lon="-0.81444">
        <ele>129</ele>
        <time>2023-11-05T15:04:54Z</time>
      </trkpt>
      <trkpt lat="47.07437" lon="-0.81472">
        <ele>128</ele>
        <time>2023-11-05T15:05:23Z</time>
      </trkpt>
      <trkpt lat="47.07421" lon="-0.81489">
        <ele>127</ele>
        <time>2023-11-05T15:05:49Z</time>
      </trkpt>
      <trkpt lat="47.07402" lon="-0.81498">
        <ele>127</ele>
        <time>2023-11-05T15:06:16Z</time>
      </trkpt>
      <trkpt lat="47.07384" lon="-0.81491">
        <ele>127</ele>
        <time>2023-11-05T15:06:41Z</time>
      </trkpt>
      <trkpt lat="47.07326" lon="-0.81478">
        <ele>126</ele>
        <time>2023-11-05T15:07:59Z</time>
      </trkpt>
      <trkpt lat="47.07264" lon="-0.81471">
        <ele>125</ele>
        <time>2023-11-05T15:09:22Z</time>
      </trkpt>
      <trkpt lat="47.07225" lon="-0.81463">
        <ele>125</ele>
        <time>2023-11-05T15:10:14Z</time>
      </trkpt>
      <trkpt lat="47.07203" lon="-0.81463">
        <ele>125</ele>
        <time>2023-11-05T15:10:44Z</time>
      </trkpt>
      <trkpt lat="47.07142" lon="-0.81451">
        <ele>125</ele>
        <time>2023-11-05T15:12:06Z</time>
      </trkpt>
      <trkpt lat="47.07122" lon="-0.8145">
        <ele>126</ele>
        <time>2023-11-05T15:12:33Z</time>
      </trkpt>
      <trkpt lat="47.07102" lon="-0.81444">
        <ele>126</ele>
        <time>2023-11-05T15:13:00Z</time>
      </trkpt>
      <trkpt lat="47.07082" lon="-0.81443">
        <ele>126</ele>
        <time>2023-11-05T15:13:26Z</time>
      </trkpt>
      <trkpt lat="47.07063" lon="-0.8145">
        <ele>126</ele>
        <time>2023-11-05T15:13:53Z</time>
      </trkpt>
      <trkpt lat="47.07012" lon="-0.81487">
        <ele>127</ele>
        <time>2023-11-05T15:15:09Z</time>
      </trkpt>
      <trkpt lat="47.06992" lon="-0.81495">
        <ele>127</ele>
        <time>2023-11-05T15:15:36Z</time>
      </trkpt>
      <trkpt lat="47.06933" lon="-0.81536">
        <ele>127</ele>
        <time>2023-11-05T15:17:03Z</time>
      </trkpt>
      <trkpt lat="47.06916" lon="-0.81551">
        <ele>127</ele>
        <time>2023-11-05T15:17:30Z</time>
      </trkpt>
      <trkpt lat="47.06899" lon="-0.81561">
        <ele>128</ele>
        <time>2023-11-05T15:17:54Z</time>
      </trkpt>
      <trkpt lat="47.06881" lon="-0.81554">
        <ele>128</ele>
        <time>2023-11-05T15:18:19Z</time>
      </trkpt>
      <trkpt lat="47.06867" lon="-0.81537">
        <ele>128</ele>
        <time>2023-11-05T15:18:43Z</time>
      </trkpt>
      <trkpt lat="47.06777" lon="-0.81464">
        <ele>130</ele>
        <time>2023-11-05T15:21:01Z</time>
      </trkpt>
      <trkpt lat="47.06742" lon="-0.8143">
        <ele>131</ele>
        <time>2023-11-05T15:21:57Z</time>
      </trkpt>
      <trkpt lat="47.06728" lon="-0.8141">
        <ele>131</ele>
        <time>2023-11-05T15:22:23Z</time>
      </trkpt>
      <trkpt lat="47.06704" lon="-0.81356">
        <ele>131</ele>
        <time>2023-11-05T15:23:21Z</time>
      </trkpt>
      <trkpt lat="47.0671" lon="-0.81326">
        <ele>131</ele>
        <time>2023-11-05T15:23:50Z</time>
      </trkpt>
      <trkpt lat="47.06722" lon="-0.81303">
        <ele>131</ele>
        <time>2023-11-05T15:24:16Z</time>
      </trkpt>
      <trkpt lat="47.06733" lon="-0.81246">
        <ele>131</ele>
        <time>2023-11-05T15:25:10Z</time>
      </trkpt>
      <trkpt lat="47.06742" lon="-0.81223">
        <ele>132</ele>
        <time>2023-11-05T15:25:34Z</time>
      </trkpt>
      <trkpt lat="47.06725" lon="-0.81211">
        <ele>132</ele>
        <time>2023-11-05T15:25:59Z</time>
      </trkpt>
      <trkpt lat="47.06707" lon="-0.81217">
        <ele>132</ele>
        <time>2023-11-05T15:26:24Z</time>
      </trkpt>
      <trkpt lat="47.06664" lon="-0.81213">
        <ele>132</ele>
        <time>2023-11-05T15:27:21Z</time>
      </trkpt>
      <trkpt lat="47.06584" lon="-0.81216">
        <ele>133</ele>
        <time>2023-11-05T15:29:08Z</time>
      </trkpt>
      <trkpt lat="47.06563" lon="-0.81213">
        <ele>133</ele>
        <time>2023-11-05T15:29:36Z</time>
      </trkpt>
      <trkpt lat="47.06504" lon="-0.81218">
        <ele>134</ele>
        <time>2023-11-05T15:30:55Z</time>
      </trkpt>
      <trkpt lat="47.06486" lon="-0.81215">
        <ele>135</ele>
        <time>2023-11-05T15:31:19Z</time>
      </trkpt>
      <trkpt lat="47.06402" lon="-0.81215">
        <ele>136</ele>
        <time>2023-11-05T15:33:11Z</time>
      </trkpt>
      <trkpt lat="47.06338" lon="-0.81221">
        <ele>138</ele>
        <time>2023-11-05T15:34:37Z</time>
      </trkpt>
      <trkpt lat="47.06322" lon="-0.81237">
        <ele>138</ele>
        <time>2023-11-05T15:35:03Z</time>
      </trkpt>
      <trkpt lat="47.06313" lon="-0.81262">
        <ele>138</ele>
        <time>2023-11-05T15:35:28Z</time>
      </trkpt>
      <trkpt lat="47.06306" lon="-0.81292">
        <ele>138</ele>
        <time>2023-11-05T15:35:57Z</time>
      </trkpt>
      <trkpt lat="47.06287" lon="-0.81346">
        <ele>138</ele>
        <time>2023-11-05T15:36:52Z</time>
      </trkpt>
      <trkpt lat="47.06275" lon="-0.81371">
        <ele>138</ele>
        <time>2023-11-05T15:37:20Z</time>
      </trkpt>
      <trkpt lat="47.06253" lon="-0.81428">
        <ele>138</ele>
        <time>2023-11-05T15:38:20Z</time>
      </trkpt>
      <trkpt lat="47.06242" lon="-0.81454">
        <ele>139</ele>
        <time>2023-11-05T15:38:48Z</time>
      </trkpt>
      <trkpt lat="47.06191" lon="-0.81546">
        <ele>142</ele>
        <time>2023-11-05T15:40:36Z</time>
      </trkpt>
      <trkpt lat="47.06171" lon="-0.81594">
        <ele>143</ele>
        <time>2023-11-05T15:41:27Z</time>
      </trkpt>
      <trkpt lat="47.06164" lon="-0.81619">
        <ele>143</ele>
        <time>2023-11-05T15:41:51Z</time>
      </trkpt>
      <trkpt lat="47.06105" lon="-0.81752">
        <ele>145</ele>
        <time>2023-11-05T15:44:16Z</time>
      </trkpt>
      <trkpt lat="47.0609" lon="-0.81778">
        <ele>146</ele>
        <time>2023-11-05T15:44:46Z</time>
      </trkpt>
      <trkpt lat="47.06074" lon="-0.81797">
        <ele>146</ele>
        <time>2023-11-05T15:45:14Z</time>
      </trkpt>
      <trkpt lat="47.06062" lon="-0.81821">
        <ele>147</ele>
        <time>2023-11-05T15:45:41Z</time>
      </trkpt>
      <trkpt lat="47.06003" lon="-0.81905">
        <ele>149</ele>
        <time>2023-11-05T15:47:31Z</time>
      </trkpt>
      <trkpt lat="47.05956" lon="-0.81965">
        <ele>151</ele>
        <time>2023-11-05T15:48:54Z</time>
      </trkpt>
      <trkpt lat="47.05932" lon="-0.82049">
        <ele>153</ele>
        <time>2023-11-05T15:50:17Z</time>
      </trkpt>
      <trkpt lat="47.05915" lon="-0.82135">
        <ele>155</ele>
        <time>2023-11-05T15:51:38Z</time>
      </trkpt>
      <trkpt lat="47.05876" lon="-0.82272">
        <ele>156</ele>
        <time>2023-11-05T15:53:53Z</time>
      </trkpt>
      <trkpt lat="47.05862" lon="-0.82332">
        <ele>156</ele>
        <time>2023-11-05T15:54:51Z</time>
      </trkpt>
      <trkpt lat="47.05853" lon="-0.82387">
        <ele>156</ele>
        <time>2023-11-05T15:55:42Z</time>
      </trkpt>
      <trkpt lat="47.05828" lon="-0.82468">
        <ele>156</ele>
        <time>2023-11-05T15:57:03Z</time>
      </trkpt>
      <trkpt lat="47.05818" lon="-0.82525">
        <ele>155</ele>
        <time>2023-11-05T15:57:56Z</time>
      </trkpt>
      <trkpt lat="47.05774" lon="-0.82695">
        <ele>153</ele>
        <time>2023-11-05T16:00:42Z</time>
      </trkpt>
      <trkpt lat="47.05758" lon="-0.82715">
        <ele>153</ele>
        <time>2023-11-05T16:01:10Z</time>
      </trkpt>
      <trkpt lat="47.05738" lon="-0.82723">
        <ele>152</ele>
        <time>2023-11-05T16:01:37Z</time>
      </trkpt>
      <trkpt lat="47.05702" lon="-0.82746">
        <ele>151</ele>
        <time>2023-11-05T16:02:30Z</time>
      </trkpt>
      <trkpt lat="47.05641" lon="-0.82774">
        <ele>149</ele>
        <time>2023-11-05T16:03:55Z</time>
      </trkpt>
      <trkpt lat="47.05583" lon="-0.82813">
        <ele>145</ele>
        <time>2023-11-05T16:05:20Z</time>
      </trkpt>
      <trkpt lat="47.05544" lon="-0.82831">
        <ele>144</ele>
        <time>2023-11-05T16:06:15Z</time>
      </trkpt>
      <trkpt lat="47.05521" lon="-0.82839">
        <ele>143</ele>
        <time>2023-11-05T16:06:46Z</time>
      </trkpt>
      <trkpt lat="47.05467" lon="-0.82866">
        <ele>142</ele>
        <time>2023-11-05T16:08:03Z</time>
      </trkpt>
      <trkpt lat="47.05457" lon="-0.82891">
        <ele>142</ele>
        <time>2023-11-05T16:08:29Z</time>
      </trkpt>
      <trkpt lat="47.05376" lon="-0.82931">
        <ele>142</ele>
        <time>2023-11-05T16:10:23Z</time>
      </trkpt>
      <trkpt lat="47.05342" lon="-0.82957">
        <ele>142</ele>
        <time>2023-11-05T16:11:14Z</time>
      </trkpt>
      <trkpt lat="47.05325" lon="-0.8298">
        <ele>141</ele>
        <time>2023-11-05T16:11:45Z</time>
      </trkpt>
      <trkpt lat="47.05317" lon="-0.83006">
        <ele>140</ele>
        <time>2023-11-05T16:12:11Z</time>
      </trkpt>
      <trkpt lat="47.05327" lon="-0.83068">
        <ele>139</ele>
        <time>2023-11-05T16:13:09Z</time>
      </trkpt>
      <trkpt lat="47.05306" lon="-0.83073">
        <ele>140</ele>
        <time>2023-11-05T16:13:37Z</time>
      </trkpt>
      <trkpt lat="47.05284" lon="-0.83164">
        <ele>139</ele>
        <time>2023-11-05T16:15:05Z</time>
      </trkpt>
      <trkpt lat="47.0526" lon="-0.83212">
        <ele>138</ele>
        <time>2023-11-05T16:15:59Z</time>
      </trkpt>
      <trkpt lat="47.05243" lon="-0.83227">
        <ele>138</ele>
        <time>2023-11-05T16:16:26Z</time>
      </trkpt>
      <trkpt lat="47.05161" lon="-0.83312">
        <ele>137</ele>
        <time>2023-11-05T16:18:40Z</time>
      </trkpt>
      <trkpt lat="47.05149" lon="-0.83333">
        <ele>136</ele>
        <time>2023-11-05T16:19:04Z</time>
      </trkpt>
      <trkpt lat="47.05082" lon="-0.83408">
        <ele>136</ele>
        <time>2023-11-05T16:20:57Z</time>
      </trkpt>
      <trkpt lat="47.04968" lon="-0.8348">
        <ele>134</ele>
        <time>2023-11-05T16:23:43Z</time>
      </trkpt>
      <trkpt lat="47.04872" lon="-0.83552">
        <ele>131</ele>
        <time>2023-11-05T16:26:06Z</time>
      </trkpt>
      <trkpt lat="47.04864" lon="-0.83576">
        <ele>131</ele>
        <time>2023-11-05T16:26:31Z</time>
      </trkpt>
      <trkpt lat="47.04878" lon="-0.83634">
        <ele>131</ele>
        <time>2023-11-05T16:27:27Z</time>
      </trkpt>
      <trkpt lat="47.04879" lon="-0.83666">
        <ele>131</ele>
        <time>2023-11-05T16:27:56Z</time>
      </trkpt>
      <trkpt lat="47.04866" lon="-0.83687">
        <ele>131</ele>
        <time>2023-11-05T16:28:22Z</time>
      </trkpt>
      <trkpt lat="47.04813" lon="-0.83719">
        <ele>130</ele>
        <time>2023-11-05T16:29:38Z</time>
      </trkpt>
      <trkpt lat="47.04696" lon="-0.83783">
        <ele>130</ele>
        <time>2023-11-05T16:32:25Z</time>
      </trkpt>
      <trkpt lat="47.04639" lon="-0.83819">
        <ele>129</ele>
        <time>2023-11-05T16:33:47Z</time>
      </trkpt>
      <trkpt lat="47.0449" lon="-0.83928">
        <ele>128</ele>
        <time>2023-11-05T16:37:30Z</time>
      </trkpt>
      <trkpt lat="47.04472" lon="-0.83944">
        <ele>127</ele>
        <time>2023-11-05T16:37:58Z</time>
      </trkpt>
      <trkpt lat="47.04453" lon="-0.83949">
        <ele>126</ele>
        <time>2023-11-05T16:38:23Z</time>
      </trkpt>
      <trkpt lat="47.04416" lon="-0.83975">
        <ele>124</ele>
        <time>2023-11-05T16:39:18Z</time>
      </trkpt>
      <trkpt lat="47.04395" lon="-0.83963">
        <ele>124</ele>
        <time>2023-11-05T16:39:48Z</time>
      </trkpt>
      <trkpt lat="47.04349" lon="-0.8391">
        <ele>122</ele>
        <time>2023-11-05T16:41:06Z</time>
      </trkpt>
      <trkpt lat="47.04287" lon="-0.83817">
        <ele>118</ele>
        <time>2023-11-05T16:43:05Z</time>
      </trkpt>
      <trkpt lat="47.04251" lon="-0.83743">
        <ele>115</ele>
        <time>2023-11-05T16:44:27Z</time>
      </trkpt>
      <trkpt lat="47.04234" lon="-0.83759">
        <ele>114</ele>
        <time>2023-11-05T16:44:54Z</time>
      </trkpt>
      <trkpt lat="47.04199" lon="-0.83861">
        <ele>115</ele>
        <time>2023-11-05T16:46:38Z</time>
      </trkpt>
      <trkpt lat="47.04189" lon="-0.83884">
        <ele>115</ele>
        <time>2023-11-05T16:47:03Z</time>
      </trkpt>
      <trkpt lat="47.04174" lon="-0.83902">
        <ele>115</ele>
        <time>2023-11-05T16:47:29Z</time>
      </trkpt>
      <trkpt lat="47.04155" lon="-0.8391">
        <ele>115</ele>
        <time>2023-11-05T16:47:55Z</time>
      </trkpt>
      <trkpt lat="47.04138" lon="-0.83901">
        <ele>114</ele>
        <time>2023-11-05T16:48:19Z</time>
      </trkpt>
      <trkpt lat="47.04131" lon="-0.83874">
        <ele>113</ele>
        <time>2023-11-05T16:48:46Z</time>
      </trkpt>
      <trkpt lat="47.0413" lon="-0.83845">
        <ele>112</ele>
        <time>2023-11-05T16:49:12Z</time>
      </trkpt>
      <trkpt lat="47.04119" lon="-0.83761">
        <ele>109</ele>
        <time>2023-11-05T16:50:30Z</time>
      </trkpt>
      <trkpt lat="47.04084" lon="-0.83719">
        <ele>107</ele>
        <time>2023-11-05T16:51:30Z</time>
      </trkpt>
      <trkpt lat="47.04066" lon="-0.83701">
        <ele>106</ele>
        <time>2023-11-05T16:51:59Z</time>
      </trkpt>
      <trkpt lat="47.04053" lon="-0.83682">
        <ele>105</ele>
        <time>2023-11-05T16:52:24Z</time>
      </trkpt>
      <trkpt lat="47.04045" lon="-0.83658">
        <ele>104</ele>
        <time>2023-11-05T16:52:48Z</time>
      </trkpt>
      <trkpt lat="47.0403" lon="-0.83636">
        <ele>102</ele>
        <time>2023-11-05T16:53:16Z</time>
      </trkpt>
      <trkpt lat="47.04011" lon="-0.83632">
        <ele>102</ele>
        <time>2023-11-05T16:53:42Z</time>
      </trkpt>
      <trkpt lat="47.03992" lon="-0.83623">
        <ele>101</ele>
        <time>2023-11-05T16:54:09Z</time>
      </trkpt>
      <trkpt lat="47.03969" lon="-0.83622">
        <ele>100</ele>
        <time>2023-11-05T16:54:39Z</time>
      </trkpt>
      <trkpt lat="47.03949" lon="-0.83617">
        <ele>100</ele>
        <time>2023-11-05T16:55:06Z</time>
      </trkpt>
      <trkpt lat="47.03932" lon="-0.83599">
        <ele>98</ele>
        <time>2023-11-05T16:55:34Z</time>
      </trkpt>
      <trkpt lat="47.03914" lon="-0.83588">
        <ele>96</ele>
        <time>2023-11-05T16:56:00Z</time>
      </trkpt>
      <trkpt lat="47.03874" lon="-0.83574">
        <ele>94</ele>
        <time>2023-11-05T16:56:55Z</time>
      </trkpt>
      <trkpt lat="47.03855" lon="-0.83589">
        <ele>93</ele>
        <time>2023-11-05T16:57:24Z</time>
      </trkpt>
      <trkpt lat="47.03835" lon="-0.836">
        <ele>93</ele>
        <time>2023-11-05T16:57:52Z</time>
      </trkpt>
      <trkpt lat="47.03813" lon="-0.83605">
        <ele>92</ele>
        <time>2023-11-05T16:58:22Z</time>
      </trkpt>
      <trkpt lat="47.03799" lon="-0.83663">
        <ele>94</ele>
        <time>2023-11-05T16:59:18Z</time>
      </trkpt>
      <trkpt lat="47.03778" lon="-0.83663">
        <ele>92</ele>
        <time>2023-11-05T16:59:46Z</time>
      </trkpt>
      <trkpt lat="47.03762" lon="-0.83684">
        <ele>90</ele>
        <time>2023-11-05T17:00:15Z</time>
      </trkpt>
      <trkpt lat="47.03751" lon="-0.83713">
        <ele>89</ele>
        <time>2023-11-05T17:00:45Z</time>
      </trkpt>
      <trkpt lat="47.03731" lon="-0.83796">
        <ele>91</ele>
        <time>2023-11-05T17:02:05Z</time>
      </trkpt>
      <trkpt lat="47.03733" lon="-0.83826">
        <ele>93</ele>
        <time>2023-11-05T17:02:32Z</time>
      </trkpt>
      <trkpt lat="47.03718" lon="-0.83843">
        <ele>93</ele>
        <time>2023-11-05T17:02:58Z</time>
      </trkpt>
      <trkpt lat="47.03705" lon="-0.83866">
        <ele>94</ele>
        <time>2023-11-05T17:03:25Z</time>
      </trkpt>
      <trkpt lat="47.0367" lon="-0.83897">
        <ele>95</ele>
        <time>2023-11-05T17:04:19Z</time>
      </trkpt>
      <trkpt lat="47.03636" lon="-0.8392">
        <ele>96</ele>
        <time>2023-11-05T17:05:09Z</time>
      </trkpt>
      <trkpt lat="47.03594" lon="-0.83931">
        <ele>97</ele>
        <time>2023-11-05T17:06:06Z</time>
      </trkpt>
      <trkpt lat="47.03578" lon="-0.83943">
        <ele>97</ele>
        <time>2023-11-05T17:06:30Z</time>
      </trkpt>
      <trkpt lat="47.03554" lon="-0.83945">
        <ele>96</ele>
        <time>2023-11-05T17:07:02Z</time>
      </trkpt>
      <trkpt lat="47.03533" lon="-0.8395">
        <ele>96</ele>
        <time>2023-11-05T17:07:31Z</time>
      </trkpt>
      <trkpt lat="47.03514" lon="-0.83937">
        <ele>94</ele>
        <time>2023-11-05T17:07:59Z</time>
      </trkpt>
      <trkpt lat="47.03494" lon="-0.83933">
        <ele>93</ele>
        <time>2023-11-05T17:08:26Z</time>
      </trkpt>
      <trkpt lat="47.03475" lon="-0.83936">
        <ele>92</ele>
        <time>2023-11-05T17:08:51Z</time>
      </trkpt>
      <trkpt lat="47.03459" lon="-0.83951">
        <ele>92</ele>
        <time>2023-11-05T17:09:17Z</time>
      </trkpt>
      <trkpt lat="47.03418" lon="-0.84017">
        <ele>93</ele>
        <time>2023-11-05T17:10:38Z</time>
      </trkpt>
      <trkpt lat="47.03393" lon="-0.84063">
        <ele>92</ele>
        <time>2023-11-05T17:11:31Z</time>
      </trkpt>
      <trkpt lat="47.03349" lon="-0.84162">
        <ele>92</ele>
        <time>2023-11-05T17:13:19Z</time>
      </trkpt>
      <trkpt lat="47.03333" lon="-0.84187">
        <ele>91</ele>
        <time>2023-11-05T17:13:50Z</time>
      </trkpt>
      <trkpt lat="47.0331" lon="-0.84239">
        <ele>90</ele>
        <time>2023-11-05T17:14:46Z</time>
      </trkpt>
      <trkpt lat="47.03301" lon="-0.84265">
        <ele>90</ele>
        <time>2023-11-05T17:15:13Z</time>
      </trkpt>
      <trkpt lat="47.03286" lon="-0.84289">
        <ele>90</ele>
        <time>2023-11-05T17:15:43Z</time>
      </trkpt>
      <trkpt lat="47.03268" lon="-0.84305">
        <ele>90</ele>
        <time>2023-11-05T17:16:11Z</time>
      </trkpt>
      <trkpt lat="47.03251" lon="-0.8433">
        <ele>90</ele>
        <time>2023-11-05T17:16:43Z</time>
      </trkpt>
      <trkpt lat="47.03234" lon="-0.84389">
        <ele>91</ele>
        <time>2023-11-05T17:17:41Z</time>
      </trkpt>
      <trkpt lat="47.03192" lon="-0.84456">
        <ele>93</ele>
        <time>2023-11-05T17:19:04Z</time>
      </trkpt>
      <trkpt lat="47.03177" lon="-0.84471">
        <ele>93</ele>
        <time>2023-11-05T17:19:28Z</time>
      </trkpt>
      <trkpt lat="47.03158" lon="-0.84471">
        <ele>92</ele>
        <time>2023-11-05T17:19:53Z</time>
      </trkpt>
      <trkpt lat="47.03138" lon="-0.84487">
        <ele>92</ele>
        <time>2023-11-05T17:20:24Z</time>
      </trkpt>
      <trkpt lat="47.0311" lon="-0.84533">
        <ele>92</ele>
        <time>2023-11-05T17:21:20Z</time>
      </trkpt>
      <trkpt lat="47.03094" lon="-0.84552">
        <ele>91</ele>
        <time>2023-11-05T17:21:47Z</time>
      </trkpt>
      <trkpt lat="47.03099" lon="-0.84581">
        <ele>91</ele>
        <time>2023-11-05T17:22:15Z</time>
      </trkpt>
      <trkpt lat="47.03097" lon="-0.84612">
        <ele>91</ele>
        <time>2023-11-05T17:22:43Z</time>
      </trkpt>
      <trkpt lat="47.03078" lon="-0.84631">
        <ele>90</ele>
        <time>2023-11-05T17:23:14Z</time>
      </trkpt>
      <trkpt lat="47.03037" lon="-0.84637">
        <ele>88</ele>
        <time>2023-11-05T17:24:09Z</time>
      </trkpt>
      <trkpt lat="47.03014" lon="-0.84686">
        <ele>88</ele>
        <time>2023-11-05T17:25:03Z</time>
      </trkpt>
      <trkpt lat="47.02997" lon="-0.84704">
        <ele>88</ele>
        <time>2023-11-05T17:25:31Z</time>
      </trkpt>
      <trkpt lat="47.02975" lon="-0.84712">
        <ele>88</ele>
        <time>2023-11-05T17:26:01Z</time>
      </trkpt>
      <trkpt lat="47.02933" lon="-0.84712">
        <ele>87</ele>
        <time>2023-11-05T17:26:57Z</time>
      </trkpt>
      <trkpt lat="47.02891" lon="-0.847">
        <ele>86</ele>
        <time>2023-11-05T17:27:54Z</time>
      </trkpt>
      <trkpt lat="47.02871" lon="-0.847">
        <ele>87</ele>
        <time>2023-11-05T17:28:21Z</time>
      </trkpt>
      <trkpt lat="47.02851" lon="-0.8471">
        <ele>88</ele>
        <time>2023-11-05T17:28:49Z</time>
      </trkpt>
      <trkpt lat="47.02828" lon="-0.84711">
        <ele>88</ele>
        <time>2023-11-05T17:29:20Z</time>
      </trkpt>
      <trkpt lat="47.02789" lon="-0.84729">
        <ele>88</ele>
        <time>2023-11-05T17:30:14Z</time>
      </trkpt>
      <trkpt lat="47.02686" lon="-0.84766">
        <ele>90</ele>
        <time>2023-11-05T17:32:36Z</time>
      </trkpt>
      <trkpt lat="47.02667" lon="-0.84783">
        <ele>91</ele>
        <time>2023-11-05T17:33:05Z</time>
      </trkpt>
      <trkpt lat="47.02646" lon="-0.84788">
        <ele>92</ele>
        <time>2023-11-05T17:33:34Z</time>
      </trkpt>
      <trkpt lat="47.02606" lon="-0.84778">
        <ele>91</ele>
        <time>2023-11-05T17:34:28Z</time>
      </trkpt>
      <trkpt lat="47.02588" lon="-0.84784">
        <ele>92</ele>
        <time>2023-11-05T17:34:53Z</time>
      </trkpt>
      <trkpt lat="47.02568" lon="-0.84795">
        <ele>92</ele>
        <time>2023-11-05T17:35:21Z</time>
      </trkpt>
      <trkpt lat="47.02559" lon="-0.84818">
        <ele>92</ele>
        <time>2023-11-05T17:35:45Z</time>
      </trkpt>
      <trkpt lat="47.0254" lon="-0.84834">
        <ele>92</ele>
        <time>2023-11-05T17:36:14Z</time>
      </trkpt>
      <trkpt lat="47.02519" lon="-0.84824">
        <ele>90</ele>
        <time>2023-11-05T17:36:44Z</time>
      </trkpt>
      <trkpt lat="47.02503" lon="-0.84811">
        <ele>88</ele>
        <time>2023-11-05T17:37:08Z</time>
      </trkpt>
      <trkpt lat="47.02501" lon="-0.84782">
        <ele>85</ele>
        <time>2023-11-05T17:37:35Z</time>
      </trkpt>
      <trkpt lat="47.02482" lon="-0.84789">
        <ele>85</ele>
        <time>2023-11-05T17:38:01Z</time>
      </trkpt>
      <trkpt lat="47.02469" lon="-0.8473">
        <ele>84</ele>
        <time>2023-11-05T17:38:57Z</time>
      </trkpt>
      <trkpt lat="47.02447" lon="-0.84681">
        <ele>89</ele>
        <time>2023-11-05T17:39:51Z</time>
      </trkpt>
      <trkpt lat="47.02442" lon="-0.84656">
        <ele>91</ele>
        <time>2023-11-05T17:40:14Z</time>
      </trkpt>
      <trkpt lat="47.0245" lon="-0.84627">
        <ele>92</ele>
        <time>2023-11-05T17:40:43Z</time>
      </trkpt>
      <trkpt lat="47.02431" lon="-0.84629">
        <ele>94</ele>
        <time>2023-11-05T17:41:08Z</time>
      </trkpt>
      <trkpt lat="47.02412" lon="-0.8462">
        <ele>96</ele>
        <time>2023-11-05T17:41:35Z</time>
      </trkpt>
      <trkpt lat="47.02402" lon="-0.84597">
        <ele>99</ele>
        <time>2023-11-05T17:42:00Z</time>
      </trkpt>
      <trkpt lat="47.02408" lon="-0.84569">
        <ele>100</ele>
        <time>2023-11-05T17:42:26Z</time>
      </trkpt>
      <trkpt lat="47.02417" lon="-0.84542">
        <ele>101</ele>
        <time>2023-11-05T17:42:54Z</time>
      </trkpt>
      <trkpt lat="47.02451" lon="-0.84466">
        <ele>104</ele>
        <time>2023-11-05T17:44:16Z</time>
      </trkpt>
      <trkpt lat="47.02471" lon="-0.8445">
        <ele>104</ele>
        <time>2023-11-05T17:44:47Z</time>
      </trkpt>
      <trkpt lat="47.02513" lon="-0.84427">
        <ele>103</ele>
        <time>2023-11-05T17:45:47Z</time>
      </trkpt>
      <trkpt lat="47.02532" lon="-0.84426">
        <ele>99</ele>
        <time>2023-11-05T17:46:12Z</time>
      </trkpt>
      <trkpt lat="47.02551" lon="-0.84432">
        <ele>96</ele>
        <time>2023-11-05T17:46:38Z</time>
      </trkpt>
      <trkpt lat="47.02565" lon="-0.8441">
        <ele>94</ele>
        <time>2023-11-05T17:47:05Z</time>
      </trkpt>
      <trkpt lat="47.02571" lon="-0.84385">
        <ele>93</ele>
        <time>2023-11-05T17:47:30Z</time>
      </trkpt>
      <trkpt lat="47.02582" lon="-0.84361">
        <ele>92</ele>
        <time>2023-11-05T17:47:56Z</time>
      </trkpt>
      <trkpt lat="47.02634" lon="-0.84273">
        <ele>94</ele>
        <time>2023-11-05T17:49:42Z</time>
      </trkpt>
      <trkpt lat="47.02653" lon="-0.84265">
        <ele>94</ele>
        <time>2023-11-05T17:50:08Z</time>
      </trkpt>
      <trkpt lat="47.02674" lon="-0.84267">
        <ele>92</ele>
        <time>2023-11-05T17:50:36Z</time>
      </trkpt>
      <trkpt lat="47.02694" lon="-0.84258">
        <ele>92</ele>
        <time>2023-11-05T17:51:04Z</time>
      </trkpt>
      <trkpt lat="47.02713" lon="-0.84257">
        <ele>91</ele>
        <time>2023-11-05T17:51:30Z</time>
      </trkpt>
      <trkpt lat="47.02772" lon="-0.84244">
        <ele>88</ele>
        <time>2023-11-05T17:52:49Z</time>
      </trkpt>
      <trkpt lat="47.02791" lon="-0.84245">
        <ele>87</ele>
        <time>2023-11-05T17:53:15Z</time>
      </trkpt>
      <trkpt lat="47.02813" lon="-0.8424">
        <ele>87</ele>
        <time>2023-11-05T17:53:44Z</time>
      </trkpt>
      <trkpt lat="47.02832" lon="-0.84231">
        <ele>86</ele>
        <time>2023-11-05T17:54:11Z</time>
      </trkpt>
      <trkpt lat="47.02863" lon="-0.84188">
        <ele>88</ele>
        <time>2023-11-05T17:55:08Z</time>
      </trkpt>
      <trkpt lat="47.02876" lon="-0.84164">
        <ele>89</ele>
        <time>2023-11-05T17:55:36Z</time>
      </trkpt>
      <trkpt lat="47.02894" lon="-0.8416">
        <ele>89</ele>
        <time>2023-11-05T17:56:00Z</time>
      </trkpt>
      <trkpt lat="47.02932" lon="-0.84144">
        <ele>88</ele>
        <time>2023-11-05T17:56:53Z</time>
      </trkpt>
      <trkpt lat="47.02948" lon="-0.84158">
        <ele>88</ele>
        <time>2023-11-05T17:57:18Z</time>
      </trkpt>
      <trkpt lat="47.02958" lon="-0.84181">
        <ele>87</ele>
        <time>2023-11-05T17:57:42Z</time>
      </trkpt>
      <trkpt lat="47.02973" lon="-0.84201">
        <ele>87</ele>
        <time>2023-11-05T17:58:09Z</time>
      </trkpt>
      <trkpt lat="47.02992" lon="-0.8421">
        <ele>86</ele>
        <time>2023-11-05T17:58:36Z</time>
      </trkpt>
      <trkpt lat="47.03033" lon="-0.84214">
        <ele>86</ele>
        <time>2023-11-05T17:59:31Z</time>
      </trkpt>
      <trkpt lat="47.03053" lon="-0.84222">
        <ele>86</ele>
        <time>2023-11-05T17:59:59Z</time>
      </trkpt>
      <trkpt lat="47.03073" lon="-0.84222">
        <ele>85</ele>
        <time>2023-11-05T18:00:25Z</time>
      </trkpt>
      <trkpt lat="47.03089" lon="-0.84207">
        <ele>85</ele>
        <time>2023-11-05T18:00:51Z</time>
      </trkpt>
      <trkpt lat="47.03104" lon="-0.84188">
        <ele>86</ele>
        <time>2023-11-05T18:01:17Z</time>
      </trkpt>
      <trkpt lat="47.03116" lon="-0.84166">
        <ele>86</ele>
        <time>2023-11-05T18:01:43Z</time>
      </trkpt>
      <trkpt lat="47.0312" lon="-0.84137">
        <ele>86</ele>
        <time>2023-11-05T18:02:10Z</time>
      </trkpt>
      <trkpt lat="47.03119" lon="-0.84109">
        <ele>87</ele>
        <time>2023-11-05T18:02:35Z</time>
      </trkpt>
      <trkpt lat="47.03123" lon="-0.84052">
        <ele>88</ele>
        <time>2023-11-05T18:03:27Z</time>
      </trkpt>
      <trkpt lat="47.03131" lon="-0.84023">
        <ele>88</ele>
        <time>2023-11-05T18:03:56Z</time>
      </trkpt>
      <trkpt lat="47.03142" lon="-0.83999">
        <ele>87</ele>
        <time>2023-11-05T18:04:22Z</time>
      </trkpt>
      <trkpt lat="47.03157" lon="-0.83946">
        <ele>86</ele>
        <time>2023-11-05T18:05:14Z</time>
      </trkpt>
      <trkpt lat="47.03176" lon="-0.83894">
        <ele>86</ele>
        <time>2023-11-05T18:06:08Z</time>
      </trkpt>
      <trkpt lat="47.03189" lon="-0.83871">
        <ele>86</ele>
        <time>2023-11-05T18:06:35Z</time>
      </trkpt>
      <trkpt lat="47.03211" lon="-0.83819">
        <ele>88</ele>
        <time>2023-11-05T18:07:31Z</time>
      </trkpt>
      <trkpt lat="47.03199" lon="-0.83792">
        <ele>89</ele>
        <time>2023-11-05T18:08:00Z</time>
      </trkpt>
      <trkpt lat="47.03217" lon="-0.83784">
        <ele>89</ele>
        <time>2023-11-05T18:08:25Z</time>
      </trkpt>
      <trkpt lat="47.03261" lon="-0.83775">
        <ele>88</ele>
        <time>2023-11-05T18:09:24Z</time>
      </trkpt>
      <trkpt lat="47.03279" lon="-0.83764">
        <ele>88</ele>
        <time>2023-11-05T18:09:50Z</time>
      </trkpt>
      <trkpt lat="47.03296" lon="-0.83761">
        <ele>87</ele>
        <time>2023-11-05T18:10:13Z</time>
      </trkpt>
      <trkpt lat="47.03315" lon="-0.83751">
        <ele>87</ele>
        <time>2023-11-05T18:10:40Z</time>
      </trkpt>
      <trkpt lat="47.03434" lon="-0.83711">
        <ele>87</ele>
        <time>2023-11-05T18:13:23Z</time>
      </trkpt>
      <trkpt lat="47.03446" lon="-0.83685">
        <ele>87</ele>
        <time>2023-11-05T18:13:52Z</time>
      </trkpt>
      <trkpt lat="47.0346" lon="-0.83664">
        <ele>88</ele>
        <time>2023-11-05T18:14:18Z</time>
      </trkpt>
      <trkpt lat="47.03481" lon="-0.83665">
        <ele>87</ele>
        <time>2023-11-05T18:14:46Z</time>
      </trkpt>
      <trkpt lat="47.03501" lon="-0.83663">
        <ele>87</ele>
        <time>2023-11-05T18:15:13Z</time>
      </trkpt>
      <trkpt lat="47.03521" lon="-0.83651">
        <ele>86</ele>
        <time>2023-11-05T18:15:42Z</time>
      </trkpt>
      <trkpt lat="47.0353" lon="-0.83626">
        <ele>86</ele>
        <time>2023-11-05T18:16:08Z</time>
      </trkpt>
      <trkpt lat="47.03538" lon="-0.8357">
        <ele>86</ele>
        <time>2023-11-05T18:17:00Z</time>
      </trkpt>
      <trkpt lat="47.0355" lon="-0.83549">
        <ele>86</ele>
        <time>2023-11-05T18:17:25Z</time>
      </trkpt>
      <trkpt lat="47.03569" lon="-0.83539">
        <ele>86</ele>
        <time>2023-11-05T18:17:52Z</time>
      </trkpt>
      <trkpt lat="47.03584" lon="-0.83521">
        <ele>86</ele>
        <time>2023-11-05T18:18:17Z</time>
      </trkpt>
      <trkpt lat="47.03564" lon="-0.83468">
        <ele>86</ele>
        <time>2023-11-05T18:19:13Z</time>
      </trkpt>
      <trkpt lat="47.03528" lon="-0.83432">
        <ele>87</ele>
        <time>2023-11-05T18:20:11Z</time>
      </trkpt>
      <trkpt lat="47.03499" lon="-0.83387">
        <ele>86</ele>
        <time>2023-11-05T18:21:07Z</time>
      </trkpt>
      <trkpt lat="47.03473" lon="-0.83341">
        <ele>86</ele>
        <time>2023-11-05T18:22:01Z</time>
      </trkpt>
      <trkpt lat="47.03439" lon="-0.83316">
        <ele>87</ele>
        <time>2023-11-05T18:22:52Z</time>
      </trkpt>
      <trkpt lat="47.0342" lon="-0.83233">
        <ele>86</ele>
        <time>2023-11-05T18:24:12Z</time>
      </trkpt>
      <trkpt lat="47.03394" lon="-0.8318">
        <ele>85</ele>
        <time>2023-11-05T18:25:11Z</time>
      </trkpt>
      <trkpt lat="47.03358" lon="-0.83144">
        <ele>86</ele>
        <time>2023-11-05T18:26:09Z</time>
      </trkpt>
      <trkpt lat="47.03319" lon="-0.83132">
        <ele>86</ele>
        <time>2023-11-05T18:27:02Z</time>
      </trkpt>
      <trkpt lat="47.03299" lon="-0.83121">
        <ele>87</ele>
        <time>2023-11-05T18:27:31Z</time>
      </trkpt>
      <trkpt lat="47.03278" lon="-0.83073">
        <ele>86</ele>
        <time>2023-11-05T18:28:23Z</time>
      </trkpt>
      <trkpt lat="47.0326" lon="-0.83057">
        <ele>86</ele>
        <time>2023-11-05T18:28:51Z</time>
      </trkpt>
      <trkpt lat="47.03221" lon="-0.8303">
        <ele>86</ele>
        <time>2023-11-05T18:29:49Z</time>
      </trkpt>
      <trkpt lat="47.03183" lon="-0.83025">
        <ele>87</ele>
        <time>2023-11-05T18:30:39Z</time>
      </trkpt>
      <trkpt lat="47.03164" lon="-0.83014">
        <ele>87</ele>
        <time>2023-11-05T18:31:07Z</time>
      </trkpt>
      <trkpt lat="47.03107" lon="-0.83013">
        <ele>89</ele>
        <time>2023-11-05T18:32:23Z</time>
      </trkpt>
      <trkpt lat="47.03089" lon="-0.83015">
        <ele>90</ele>
        <time>2023-11-05T18:32:47Z</time>
      </trkpt>
      <trkpt lat="47.02972" lon="-0.83047">
        <ele>93</ele>
        <time>2023-11-05T18:35:26Z</time>
      </trkpt>
      <trkpt lat="47.02954" lon="-0.83039">
        <ele>93</ele>
        <time>2023-11-05T18:35:51Z</time>
      </trkpt>
      <trkpt lat="47.02937" lon="-0.8298">
        <ele>92</ele>
        <time>2023-11-05T18:36:49Z</time>
      </trkpt>
      <trkpt lat="47.02926" lon="-0.82956">
        <ele>92</ele>
        <time>2023-11-05T18:37:15Z</time>
      </trkpt>
      <trkpt lat="47.0291" lon="-0.82903">
        <ele>93</ele>
        <time>2023-11-05T18:38:08Z</time>
      </trkpt>
      <trkpt lat="47.02882" lon="-0.82827">
        <ele>94</ele>
        <time>2023-11-05T18:39:27Z</time>
      </trkpt>
      <trkpt lat="47.02867" lon="-0.82745">
        <ele>93</ele>
        <time>2023-11-05T18:40:44Z</time>
      </trkpt>
      <trkpt lat="47.02858" lon="-0.82722">
        <ele>94</ele>
        <time>2023-11-05T18:41:08Z</time>
      </trkpt>
      <trkpt lat="47.02848" lon="-0.82665">
        <ele>94</ele>
        <time>2023-11-05T18:42:02Z</time>
      </trkpt>
      <trkpt lat="47.02836" lon="-0.82513">
        <ele>93</ele>
        <time>2023-11-05T18:44:21Z</time>
      </trkpt>
      <trkpt lat="47.02815" lon="-0.82461">
        <ele>93</ele>
        <time>2023-11-05T18:45:16Z</time>
      </trkpt>
      <trkpt lat="47.02801" lon="-0.82441">
        <ele>93</ele>
        <time>2023-11-05T18:45:42Z</time>
      </trkpt>
      <trkpt lat="47.02803" lon="-0.82412">
        <ele>92</ele>
        <time>2023-11-05T18:46:08Z</time>
      </trkpt>
      <trkpt lat="47.02809" lon="-0.82383">
        <ele>90</ele>
        <time>2023-11-05T18:46:36Z</time>
      </trkpt>
      <trkpt lat="47.02808" lon="-0.82354">
        <ele>87</ele>
        <time>2023-11-05T18:47:02Z</time>
      </trkpt>
      <trkpt lat="47.02771" lon="-0.82329">
        <ele>86</ele>
        <time>2023-11-05T18:47:57Z</time>
      </trkpt>
      <trkpt lat="47.02738" lon="-0.82296">
        <ele>86</ele>
        <time>2023-11-05T18:48:50Z</time>
      </trkpt>
      <trkpt lat="47.02721" lon="-0.82287">
        <ele>87</ele>
        <time>2023-11-05T18:49:14Z</time>
      </trkpt>
      <trkpt lat="47.02687" lon="-0.82252">
        <ele>89</ele>
        <time>2023-11-05T18:50:09Z</time>
      </trkpt>
      <trkpt lat="47.02668" lon="-0.82237">
        <ele>90</ele>
        <time>2023-11-05T18:50:38Z</time>
      </trkpt>
      <trkpt lat="47.02608" lon="-0.82214">
        <ele>90</ele>
        <time>2023-11-05T18:52:01Z</time>
      </trkpt>
      <trkpt lat="47.02587" lon="-0.82213">
        <ele>90</ele>
        <time>2023-11-05T18:52:29Z</time>
      </trkpt>
      <trkpt lat="47.02517" lon="-0.8215">
        <ele>91</ele>
        <time>2023-11-05T18:54:19Z</time>
      </trkpt>
      <trkpt lat="47.02499" lon="-0.82138">
        <ele>91</ele>
        <time>2023-11-05T18:54:45Z</time>
      </trkpt>
      <trkpt lat="47.02484" lon="-0.82119">
        <ele>91</ele>
        <time>2023-11-05T18:55:11Z</time>
      </trkpt>
      <trkpt lat="47.02465" lon="-0.82111">
        <ele>91</ele>
        <time>2023-11-05T18:55:38Z</time>
      </trkpt>
      <trkpt lat="47.02442" lon="-0.82107">
        <ele>91</ele>
        <time>2023-11-05T18:56:09Z</time>
      </trkpt>
      <trkpt lat="47.02386" lon="-0.82071">
        <ele>89</ele>
        <time>2023-11-05T18:57:30Z</time>
      </trkpt>
      <trkpt lat="47.02367" lon="-0.82069">
        <ele>89</ele>
        <time>2023-11-05T18:57:56Z</time>
      </trkpt>
      <trkpt lat="47.0235" lon="-0.82088">
        <ele>89</ele>
        <time>2023-11-05T18:58:24Z</time>
      </trkpt>
      <trkpt lat="47.02332" lon="-0.82098">
        <ele>88</ele>
        <time>2023-11-05T18:58:50Z</time>
      </trkpt>
      <trkpt lat="47.02318" lon="-0.82116">
        <ele>89</ele>
        <time>2023-11-05T18:59:15Z</time>
      </trkpt>
      <trkpt lat="47.02292" lon="-0.82162">
        <ele>89</ele>
        <time>2023-11-05T19:00:09Z</time>
      </trkpt>
      <trkpt lat="47.02275" lon="-0.82181">
        <ele>90</ele>
        <time>2023-11-05T19:00:38Z</time>
      </trkpt>
      <trkpt lat="47.02237" lon="-0.82211">
        <ele>90</ele>
        <time>2023-11-05T19:01:35Z</time>
      </trkpt>
      <trkpt lat="47.02217" lon="-0.82218">
        <ele>91</ele>
        <time>2023-11-05T19:02:03Z</time>
      </trkpt>
      <trkpt lat="47.02204" lon="-0.82193">
        <ele>90</ele>
        <time>2023-11-05T19:02:31Z</time>
      </trkpt>
      <trkpt lat="47.02211" lon="-0.82164">
        <ele>90</ele>
        <time>2023-11-05T19:02:59Z</time>
      </trkpt>
      <trkpt lat="47.022" lon="-0.82138">
        <ele>90</ele>
        <time>2023-11-05T19:03:27Z</time>
      </trkpt>
      <trkpt lat="47.02182" lon="-0.82135">
        <ele>91</ele>
        <time>2023-11-05T19:03:51Z</time>
      </trkpt>
      <trkpt lat="47.02165" lon="-0.82145">
        <ele>91</ele>
        <time>2023-11-05T19:04:16Z</time>
      </trkpt>
      <trkpt lat="47.02185" lon="-0.82145">
        <ele>90</ele>
        <time>2023-11-05T19:04:42Z</time>
      </trkpt>
      <trkpt lat="47.02191" lon="-0.82116">
        <ele>91</ele>
        <time>2023-11-05T19:05:10Z</time>
      </trkpt>
      <trkpt lat="47.02199" lon="-0.82092">
        <ele>92</ele>
        <time>2023-11-05T19:05:34Z</time>
      </trkpt>
      <trkpt lat="47.02212" lon="-0.82072">
        <ele>92</ele>
        <time>2023-11-05T19:05:59Z</time>
      </trkpt>
      <trkpt lat="47.0223" lon="-0.82073">
        <ele>91</ele>
        <time>2023-11-05T19:06:24Z</time>
      </trkpt>
      <trkpt lat="47.02245" lon="-0.82057">
        <ele>91</ele>
        <time>2023-11-05T19:06:48Z</time>
      </trkpt>
      <trkpt lat="47.02255" lon="-0.82029">
        <ele>91</ele>
        <time>2023-11-05T19:07:17Z</time>
      </trkpt>
      <trkpt lat="47.02276" lon="-0.81984">
        <ele>91</ele>
        <time>2023-11-05T19:08:07Z</time>
      </trkpt>
      <trkpt lat="47.02294" lon="-0.81981">
        <ele>91</ele>
        <time>2023-11-05T19:08:31Z</time>
      </trkpt>
      <trkpt lat="47.02332" lon="-0.81961">
        <ele>91</ele>
        <time>2023-11-05T19:09:25Z</time>
      </trkpt>
      <trkpt lat="47.0235" lon="-0.81976">
        <ele>91</ele>
        <time>2023-11-05T19:09:52Z</time>
      </trkpt>
      <trkpt lat="47.02444" lon="-0.81993">
        <ele>90</ele>
        <time>2023-11-05T19:11:59Z</time>
      </trkpt>
      <trkpt lat="47.02465" lon="-0.81994">
        <ele>90</ele>
        <time>2023-11-05T19:12:27Z</time>
      </trkpt>
      <trkpt lat="47.02482" lon="-0.82">
        <ele>90</ele>
        <time>2023-11-05T19:12:50Z</time>
      </trkpt>
      <trkpt lat="47.02516" lon="-0.82028">
        <ele>91</ele>
        <time>2023-11-05T19:13:42Z</time>
      </trkpt>
      <trkpt lat="47.02536" lon="-0.82041">
        <ele>91</ele>
        <time>2023-11-05T19:14:11Z</time>
      </trkpt>
      <trkpt lat="47.02574" lon="-0.82057">
        <ele>91</ele>
        <time>2023-11-05T19:15:04Z</time>
      </trkpt>
      <trkpt lat="47.0259" lon="-0.82072">
        <ele>90</ele>
        <time>2023-11-05T19:15:29Z</time>
      </trkpt>
      <trkpt lat="47.02599" lon="-0.82098">
        <ele>90</ele>
        <time>2023-11-05T19:15:56Z</time>
      </trkpt>
      <trkpt lat="47.0262" lon="-0.82109">
        <ele>90</ele>
        <time>2023-11-05T19:16:26Z</time>
      </trkpt>
      <trkpt lat="47.02641" lon="-0.82113">
        <ele>91</ele>
        <time>2023-11-05T19:16:54Z</time>
      </trkpt>
      <trkpt lat="47.02677" lon="-0.82129">
        <ele>91</ele>
        <time>2023-11-05T19:17:44Z</time>
      </trkpt>
      <trkpt lat="47.02697" lon="-0.82134">
        <ele>90</ele>
        <time>2023-11-05T19:18:11Z</time>
      </trkpt>
      <trkpt lat="47.02718" lon="-0.82147">
        <ele>89</ele>
        <time>2023-11-05T19:18:42Z</time>
      </trkpt>
      <trkpt lat="47.02738" lon="-0.82154">
        <ele>88</ele>
        <time>2023-11-05T19:19:09Z</time>
      </trkpt>
      <trkpt lat="47.02798" lon="-0.82153">
        <ele>87</ele>
        <time>2023-11-05T19:20:29Z</time>
      </trkpt>
      <trkpt lat="47.02818" lon="-0.82155">
        <ele>86</ele>
        <time>2023-11-05T19:20:56Z</time>
      </trkpt>
      <trkpt lat="47.02835" lon="-0.82138">
        <ele>86</ele>
        <time>2023-11-05T19:21:23Z</time>
      </trkpt>
      <trkpt lat="47.02857" lon="-0.82137">
        <ele>86</ele>
        <time>2023-11-05T19:21:53Z</time>
      </trkpt>
      <trkpt lat="47.02877" lon="-0.82142">
        <ele>86</ele>
        <time>2023-11-05T19:22:20Z</time>
      </trkpt>
      <trkpt lat="47.02896" lon="-0.82141">
        <ele>86</ele>
        <time>2023-11-05T19:22:45Z</time>
      </trkpt>
      <trkpt lat="47.02937" lon="-0.82158">
        <ele>85</ele>
        <time>2023-11-05T19:23:42Z</time>
      </trkpt>
      <trkpt lat="47.02974" lon="-0.82144">
        <ele>86</ele>
        <time>2023-11-05T19:24:33Z</time>
      </trkpt>
      <trkpt lat="47.02994" lon="-0.82129">
        <ele>87</ele>
        <time>2023-11-05T19:25:03Z</time>
      </trkpt>
      <trkpt lat="47.03027" lon="-0.82091">
        <ele>88</ele>
        <time>2023-11-05T19:25:59Z</time>
      </trkpt>
      <trkpt lat="47.03045" lon="-0.821">
        <ele>88</ele>
        <time>2023-11-05T19:26:24Z</time>
      </trkpt>
      <trkpt lat="47.03056" lon="-0.82126">
        <ele>89</ele>
        <time>2023-11-05T19:26:52Z</time>
      </trkpt>
      <trkpt lat="47.03057" lon="-0.82158">
        <ele>89</ele>
        <time>2023-11-05T19:27:21Z</time>
      </trkpt>
      <trkpt lat="47.03061" lon="-0.82186">
        <ele>88</ele>
        <time>2023-11-05T19:27:47Z</time>
      </trkpt>
      <trkpt lat="47.03078" lon="-0.82208">
        <ele>88</ele>
        <time>2023-11-05T19:28:18Z</time>
      </trkpt>
      <trkpt lat="47.03116" lon="-0.82231">
        <ele>88</ele>
        <time>2023-11-05T19:29:12Z</time>
      </trkpt>
      <trkpt lat="47.03148" lon="-0.82264">
        <ele>89</ele>
        <time>2023-11-05T19:30:05Z</time>
      </trkpt>
      <trkpt lat="47.03177" lon="-0.82305">
        <ele>89</ele>
        <time>2023-11-05T19:30:58Z</time>
      </trkpt>
      <trkpt lat="47.03192" lon="-0.82322">
        <ele>89</ele>
        <time>2023-11-05T19:31:24Z</time>
      </trkpt>
      <trkpt lat="47.03219" lon="-0.82362">
        <ele>90</ele>
        <time>2023-11-05T19:32:15Z</time>
      </trkpt>
      <trkpt lat="47.03237" lon="-0.82411">
        <ele>90</ele>
        <time>2023-11-05T19:33:05Z</time>
      </trkpt>
      <trkpt lat="47.03247" lon="-0.8255">
        <ele>90</ele>
        <time>2023-11-05T19:35:13Z</time>
      </trkpt>
      <trkpt lat="47.03234" lon="-0.82605">
        <ele>90</ele>
        <time>2023-11-05T19:36:06Z</time>
      </trkpt>
      <trkpt lat="47.0322" lon="-0.82691">
        <ele>87</ele>
        <time>2023-11-05T19:37:26Z</time>
      </trkpt>
      <trkpt lat="47.03227" lon="-0.82721">
        <ele>87</ele>
        <time>2023-11-05T19:37:55Z</time>
      </trkpt>
      <trkpt lat="47.03249" lon="-0.82729">
        <ele>87</ele>
        <time>2023-11-05T19:38:25Z</time>
      </trkpt>
      <trkpt lat="47.0328" lon="-0.82764">
        <ele>87</ele>
        <time>2023-11-05T19:39:17Z</time>
      </trkpt>
      <trkpt lat="47.03298" lon="-0.8278">
        <ele>87</ele>
        <time>2023-11-05T19:39:45Z</time>
      </trkpt>
      <trkpt lat="47.03343" lon="-0.82836">
        <ele>85</ele>
        <time>2023-11-05T19:41:04Z</time>
      </trkpt>
      <trkpt lat="47.03376" lon="-0.82867">
        <ele>86</ele>
        <time>2023-11-05T19:41:56Z</time>
      </trkpt>
      <trkpt lat="47.03402" lon="-0.82912">
        <ele>86</ele>
        <time>2023-11-05T19:42:50Z</time>
      </trkpt>
      <trkpt lat="47.03456" lon="-0.82996">
        <ele>87</ele>
        <time>2023-11-05T19:44:35Z</time>
      </trkpt>
      <trkpt lat="47.035" lon="-0.83048">
        <ele>88</ele>
        <time>2023-11-05T19:45:50Z</time>
      </trkpt>
      <trkpt lat="47.03522" lon="-0.83053">
        <ele>88</ele>
        <time>2023-11-05T19:46:20Z</time>
      </trkpt>
      <trkpt lat="47.0354" lon="-0.83051">
        <ele>88</ele>
        <time>2023-11-05T19:46:44Z</time>
      </trkpt>
      <trkpt lat="47.03557" lon="-0.83068">
        <ele>88</ele>
        <time>2023-11-05T19:47:12Z</time>
      </trkpt>
      <trkpt lat="47.03602" lon="-0.83123">
        <ele>87</ele>
        <time>2023-11-05T19:48:30Z</time>
      </trkpt>
      <trkpt lat="47.03657" lon="-0.83151">
        <ele>86</ele>
        <time>2023-11-05T19:49:48Z</time>
      </trkpt>
      <trkpt lat="47.03676" lon="-0.83155">
        <ele>86</ele>
        <time>2023-11-05T19:50:13Z</time>
      </trkpt>
      <trkpt lat="47.03718" lon="-0.83157">
        <ele>86</ele>
        <time>2023-11-05T19:51:09Z</time>
      </trkpt>
      <trkpt lat="47.03776" lon="-0.83155">
        <ele>86</ele>
        <time>2023-11-05T19:52:27Z</time>
      </trkpt>
      <trkpt lat="47.03797" lon="-0.83151">
        <ele>86</ele>
        <time>2023-11-05T19:52:55Z</time>
      </trkpt>
      <trkpt lat="47.03809" lon="-0.83129">
        <ele>87</ele>
        <time>2023-11-05T19:53:21Z</time>
      </trkpt>
      <trkpt lat="47.03819" lon="-0.82982">
        <ele>87</ele>
        <time>2023-11-05T19:55:35Z</time>
      </trkpt>
      <trkpt lat="47.03817" lon="-0.82926">
        <ele>87</ele>
        <time>2023-11-05T19:56:26Z</time>
      </trkpt>
      <trkpt lat="47.03804" lon="-0.82813">
        <ele>87</ele>
        <time>2023-11-05T19:58:10Z</time>
      </trkpt>
      <trkpt lat="47.03785" lon="-0.82763">
        <ele>86</ele>
        <time>2023-11-05T19:59:02Z</time>
      </trkpt>
      <trkpt lat="47.03774" lon="-0.82703">
        <ele>87</ele>
        <time>2023-11-05T19:59:59Z</time>
      </trkpt>
      <trkpt lat="47.03773" lon="-0.82675">
        <ele>88</ele>
        <time>2023-11-05T20:00:24Z</time>
      </trkpt>
      <trkpt lat="47.03788" lon="-0.82619">
        <ele>89</ele>
        <time>2023-11-05T20:01:19Z</time>
      </trkpt>
      <trkpt lat="47.0381" lon="-0.82574">
        <ele>89</ele>
        <time>2023-11-05T20:02:09Z</time>
      </trkpt>
      <trkpt lat="47.03828" lon="-0.82561">
        <ele>88</ele>
        <time>2023-11-05T20:02:36Z</time>
      </trkpt>
      <trkpt lat="47.0384" lon="-0.82538">
        <ele>89</ele>
        <time>2023-11-05T20:03:02Z</time>
      </trkpt>
      <trkpt lat="47.03854" lon="-0.82518">
        <ele>89</ele>
        <time>2023-11-05T20:03:28Z</time>
      </trkpt>
      <trkpt lat="47.03909" lon="-0.82492">
        <ele>91</ele>
        <time>2023-11-05T20:04:46Z</time>
      </trkpt>
      <trkpt lat="47.03924" lon="-0.82474">
        <ele>92</ele>
        <time>2023-11-05T20:05:11Z</time>
      </trkpt>
      <trkpt lat="47.03928" lon="-0.82447">
        <ele>93</ele>
        <time>2023-11-05T20:05:37Z</time>
      </trkpt>
      <trkpt lat="47.03948" lon="-0.82452">
        <ele>92</ele>
        <time>2023-11-05T20:06:04Z</time>
      </trkpt>
      <trkpt lat="47.0396" lon="-0.82475">
        <ele>92</ele>
        <time>2023-11-05T20:06:30Z</time>
      </trkpt>
      <trkpt lat="47.03974" lon="-0.82495">
        <ele>92</ele>
        <time>2023-11-05T20:06:56Z</time>
      </trkpt>
      <trkpt lat="47.04031" lon="-0.82617">
        <ele>100</ele>
        <time>2023-11-05T20:09:11Z</time>
      </trkpt>
      <trkpt lat="47.04059" lon="-0.827">
        <ele>105</ele>
        <time>2023-11-05T20:10:35Z</time>
      </trkpt>
      <trkpt lat="47.04081" lon="-0.8278">
        <ele>107</ele>
        <time>2023-11-05T20:11:53Z</time>
      </trkpt>
      <trkpt lat="47.04085" lon="-0.82809">
        <ele>107</ele>
        <time>2023-11-05T20:12:20Z</time>
      </trkpt>
      <trkpt lat="47.04079" lon="-0.82837">
        <ele>106</ele>
        <time>2023-11-05T20:12:47Z</time>
      </trkpt>
      <trkpt lat="47.04096" lon="-0.82891">
        <ele>106</ele>
        <time>2023-11-05T20:13:41Z</time>
      </trkpt>
      <trkpt lat="47.04104" lon="-0.82944">
        <ele>105</ele>
        <time>2023-11-05T20:14:30Z</time>
      </trkpt>
      <trkpt lat="47.04107" lon="-0.83006">
        <ele>104</ele>
        <time>2023-11-05T20:15:27Z</time>
      </trkpt>
      <trkpt lat="47.04113" lon="-0.83064">
        <ele>104</ele>
        <time>2023-11-05T20:16:20Z</time>
      </trkpt>
      <trkpt lat="47.04114" lon="-0.83123">
        <ele>104</ele>
        <time>2023-11-05T20:17:14Z</time>
      </trkpt>
      <trkpt lat="47.04118" lon="-0.83151">
        <ele>105</ele>
        <time>2023-11-05T20:17:40Z</time>
      </trkpt>
      <trkpt lat="47.04115" lon="-0.83181">
        <ele>105</ele>
        <time>2023-11-05T20:18:07Z</time>
      </trkpt>
      <trkpt lat="47.04097" lon="-0.83241">
        <ele>105</ele>
        <time>2023-11-05T20:19:07Z</time>
      </trkpt>
      <trkpt lat="47.04083" lon="-0.83267">
        <ele>105</ele>
        <time>2023-11-05T20:19:37Z</time>
      </trkpt>
      <trkpt lat="47.04066" lon="-0.83284">
        <ele>104</ele>
        <time>2023-11-05T20:20:05Z</time>
      </trkpt>
      <trkpt lat="47.04047" lon="-0.83292">
        <ele>103</ele>
        <time>2023-11-05T20:20:31Z</time>
      </trkpt>
      <trkpt lat="47.03961" lon="-0.8337">
        <ele>99</ele>
        <time>2023-11-05T20:22:46Z</time>
      </trkpt>
      <trkpt lat="47.0394" lon="-0.83379">
        <ele>97</ele>
        <time>2023-11-05T20:23:15Z</time>
      </trkpt>
      <trkpt lat="47.03904" lon="-0.834">
        <ele>95</ele>
        <time>2023-11-05T20:24:07Z</time>
      </trkpt>
      <trkpt lat="47.03884" lon="-0.83419">
        <ele>94</ele>
        <time>2023-11-05T20:24:39Z</time>
      </trkpt>
      <trkpt lat="47.03865" lon="-0.83423">
        <ele>92</ele>
        <time>2023-11-05T20:25:04Z</time>
      </trkpt>
      <trkpt lat="47.03845" lon="-0.83418">
        <ele>90</ele>
        <time>2023-11-05T20:25:31Z</time>
      </trkpt>
      <trkpt lat="47.03827" lon="-0.83434">
        <ele>89</ele>
        <time>2023-11-05T20:25:59Z</time>
      </trkpt>
      <trkpt lat="47.03818" lon="-0.83458">
        <ele>89</ele>
        <time>2023-11-05T20:26:24Z</time>
      </trkpt>
      <trkpt lat="47.03831" lon="-0.8352">
        <ele>90</ele>
        <time>2023-11-05T20:27:23Z</time>
      </trkpt>
      <trkpt lat="47.03831" lon="-0.83552">
        <ele>91</ele>
        <time>2023-11-05T20:27:52Z</time>
      </trkpt>
      <trkpt lat="47.03829" lon="-0.8358">
        <ele>92</ele>
        <time>2023-11-05T20:28:18Z</time>
      </trkpt>
      <trkpt lat="47.03818" lon="-0.83605">
        <ele>92</ele>
        <time>2023-11-05T20:28:45Z</time>
      </trkpt>
    </trkseg>
  </trk>
</gpx>